<?xml version="1.0" encoding="UTF-8" standalone="no" ?>
<gpx xmlns="http://www.topografix.com/GPX/1/1" xmlns:xsi="http://www.w3.org/2001/XMLSchema-instance" xsi:schemaLocation="http://www.topografix.com/GPX/1/1 http://www.topografix.com/GPX/1/1/gpx.xsd" version="1.1" creator="VisuGPX - https://www.visugpx.com">
  <metadata>
    <name>TAHITI - PEDESTRE - Moorea - circuit des 3 cocotiers via les 3 sapins.</name>
    <desc><![CDATA[Circuit des 3 cocotiers en passant par le belvédère des 3 sapins]]></desc>
  </metadata>
  <wpt lat="-17.5473" lon="-149.84194">
    <ele>414.691284</ele>
    <name><![CDATA[004]]></name>
    <desc><![CDATA[22-MAI-12 8:43:13]]></desc>
  </wpt>
  <trk>
    <name><![CDATA[ACTIVE LOG 023]]></name>
    <trkseg>
      <trkpt lat="-17.5331" lon="-149.83333">
        <ele>106.363037</ele>
        <time>2012-05-22T18:04:41Z</time>
      </trkpt>
      <trkpt lat="-17.5331" lon="-149.83331">
        <ele>106.843628</ele>
        <time>2012-05-22T18:04:43Z</time>
      </trkpt>
      <trkpt lat="-17.53313" lon="-149.83322">
        <ele>108.285645</ele>
        <time>2012-05-22T18:04:50Z</time>
      </trkpt>
      <trkpt lat="-17.53315" lon="-149.83317">
        <ele>108.285645</ele>
        <time>2012-05-22T18:04:54Z</time>
      </trkpt>
      <trkpt lat="-17.53319" lon="-149.83309">
        <ele>108.766235</ele>
        <time>2012-05-22T18:05:01Z</time>
      </trkpt>
      <trkpt lat="-17.5333" lon="-149.83293">
        <ele>110.688843</ele>
        <time>2012-05-22T18:05:15Z</time>
      </trkpt>
      <trkpt lat="-17.53343" lon="-149.83282">
        <ele>110.688843</ele>
        <time>2012-05-22T18:05:26Z</time>
      </trkpt>
      <trkpt lat="-17.53353" lon="-149.83273">
        <ele>112.611572</ele>
        <time>2012-05-22T18:05:35Z</time>
      </trkpt>
      <trkpt lat="-17.53358" lon="-149.8327">
        <ele>113.572998</ele>
        <time>2012-05-22T18:05:39Z</time>
      </trkpt>
      <trkpt lat="-17.53365" lon="-149.83265">
        <ele>114.053589</ele>
        <time>2012-05-22T18:05:46Z</time>
      </trkpt>
      <trkpt lat="-17.53377" lon="-149.83257">
        <ele>115.014893</ele>
        <time>2012-05-22T18:05:56Z</time>
      </trkpt>
      <trkpt lat="-17.5338" lon="-149.83255">
        <ele>116.456787</ele>
        <time>2012-05-22T18:05:59Z</time>
      </trkpt>
      <trkpt lat="-17.53379" lon="-149.83256">
        <ele>116.456787</ele>
        <time>2012-05-22T18:06:11Z</time>
      </trkpt>
      <trkpt lat="-17.53387" lon="-149.83254">
        <ele>116.9375</ele>
        <time>2012-05-22T18:06:19Z</time>
      </trkpt>
      <trkpt lat="-17.53405" lon="-149.83244">
        <ele>119.821411</ele>
        <time>2012-05-22T18:06:36Z</time>
      </trkpt>
      <trkpt lat="-17.53423" lon="-149.83237">
        <ele>121.26355</ele>
        <time>2012-05-22T18:06:51Z</time>
      </trkpt>
      <trkpt lat="-17.53425" lon="-149.83237">
        <ele>121.744141</ele>
        <time>2012-05-22T18:06:53Z</time>
      </trkpt>
      <trkpt lat="-17.5343" lon="-149.83233">
        <ele>122.224731</ele>
        <time>2012-05-22T18:06:57Z</time>
      </trkpt>
      <trkpt lat="-17.5345" lon="-149.83224">
        <ele>123.186157</ele>
        <time>2012-05-22T18:07:14Z</time>
      </trkpt>
      <trkpt lat="-17.53485" lon="-149.83218">
        <ele>125.589355</ele>
        <time>2012-05-22T18:07:37Z</time>
      </trkpt>
      <trkpt lat="-17.53503" lon="-149.83202">
        <ele>126.550659</ele>
        <time>2012-05-22T18:07:55Z</time>
      </trkpt>
      <trkpt lat="-17.53513" lon="-149.83179">
        <ele>127.992554</ele>
        <time>2012-05-22T18:08:15Z</time>
      </trkpt>
      <trkpt lat="-17.5352" lon="-149.83168">
        <ele>127.992554</ele>
        <time>2012-05-22T18:08:27Z</time>
      </trkpt>
      <trkpt lat="-17.53526" lon="-149.83164">
        <ele>127.992554</ele>
        <time>2012-05-22T18:08:31Z</time>
      </trkpt>
      <trkpt lat="-17.53544" lon="-149.83147">
        <ele>129.434692</ele>
        <time>2012-05-22T18:08:51Z</time>
      </trkpt>
      <trkpt lat="-17.53559" lon="-149.8313">
        <ele>131.3573</ele>
        <time>2012-05-22T18:09:08Z</time>
      </trkpt>
      <trkpt lat="-17.53581" lon="-149.83119">
        <ele>131.837891</ele>
        <time>2012-05-22T18:09:28Z</time>
      </trkpt>
      <trkpt lat="-17.53603" lon="-149.83113">
        <ele>135.202515</ele>
        <time>2012-05-22T18:09:44Z</time>
      </trkpt>
      <trkpt lat="-17.53627" lon="-149.83103">
        <ele>138.567261</ele>
        <time>2012-05-22T18:10:02Z</time>
      </trkpt>
      <trkpt lat="-17.53645" lon="-149.8309">
        <ele>141.931763</ele>
        <time>2012-05-22T18:10:19Z</time>
      </trkpt>
      <trkpt lat="-17.53649" lon="-149.83089">
        <ele>141.931763</ele>
        <time>2012-05-22T18:10:23Z</time>
      </trkpt>
      <trkpt lat="-17.53656" lon="-149.83089">
        <ele>141.931763</ele>
        <time>2012-05-22T18:10:28Z</time>
      </trkpt>
      <trkpt lat="-17.53672" lon="-149.83081">
        <ele>142.893066</ele>
        <time>2012-05-22T18:10:40Z</time>
      </trkpt>
      <trkpt lat="-17.53679" lon="-149.83063">
        <ele>144.335205</ele>
        <time>2012-05-22T18:10:54Z</time>
      </trkpt>
      <trkpt lat="-17.53689" lon="-149.83037">
        <ele>145.296387</ele>
        <time>2012-05-22T18:11:13Z</time>
      </trkpt>
      <trkpt lat="-17.53702" lon="-149.8302">
        <ele>148.18042</ele>
        <time>2012-05-22T18:11:27Z</time>
      </trkpt>
      <trkpt lat="-17.53714" lon="-149.83001">
        <ele>150.103027</ele>
        <time>2012-05-22T18:11:44Z</time>
      </trkpt>
      <trkpt lat="-17.53712" lon="-149.82995">
        <ele>151.064209</ele>
        <time>2012-05-22T18:11:59Z</time>
      </trkpt>
      <trkpt lat="-17.53713" lon="-149.82994">
        <ele>151.064209</ele>
        <time>2012-05-22T18:12:02Z</time>
      </trkpt>
      <trkpt lat="-17.53702" lon="-149.82984">
        <ele>152.506348</ele>
        <time>2012-05-22T18:12:16Z</time>
      </trkpt>
      <trkpt lat="-17.53692" lon="-149.82982">
        <ele>152.986938</ele>
        <time>2012-05-22T18:12:23Z</time>
      </trkpt>
      <trkpt lat="-17.53688" lon="-149.82982">
        <ele>152.986938</ele>
        <time>2012-05-22T18:12:27Z</time>
      </trkpt>
      <trkpt lat="-17.5367" lon="-149.8298">
        <ele>153.467651</ele>
        <time>2012-05-22T18:12:46Z</time>
      </trkpt>
      <trkpt lat="-17.5367" lon="-149.82979">
        <ele>153.467651</ele>
        <time>2012-05-22T18:12:49Z</time>
      </trkpt>
      <trkpt lat="-17.53673" lon="-149.82975">
        <ele>153.467651</ele>
        <time>2012-05-22T18:12:53Z</time>
      </trkpt>
      <trkpt lat="-17.5368" lon="-149.82973">
        <ele>154.428955</ele>
        <time>2012-05-22T18:12:57Z</time>
      </trkpt>
      <trkpt lat="-17.53691" lon="-149.82969">
        <ele>155.390259</ele>
        <time>2012-05-22T18:13:04Z</time>
      </trkpt>
      <trkpt lat="-17.53699" lon="-149.82966">
        <ele>156.832153</ele>
        <time>2012-05-22T18:13:09Z</time>
      </trkpt>
      <trkpt lat="-17.53717" lon="-149.82961">
        <ele>158.754761</ele>
        <time>2012-05-22T18:13:24Z</time>
      </trkpt>
      <trkpt lat="-17.53736" lon="-149.82949">
        <ele>161.158203</ele>
        <time>2012-05-22T18:13:40Z</time>
      </trkpt>
      <trkpt lat="-17.53739" lon="-149.82951">
        <ele>161.638916</ele>
        <time>2012-05-22T18:13:43Z</time>
      </trkpt>
      <trkpt lat="-17.53758" lon="-149.82964">
        <ele>163.561523</ele>
        <time>2012-05-22T18:13:57Z</time>
      </trkpt>
      <trkpt lat="-17.53771" lon="-149.82959">
        <ele>164.522705</ele>
        <time>2012-05-22T18:14:08Z</time>
      </trkpt>
      <trkpt lat="-17.53774" lon="-149.82953">
        <ele>164.522705</ele>
        <time>2012-05-22T18:14:13Z</time>
      </trkpt>
      <trkpt lat="-17.53788" lon="-149.8294">
        <ele>167.406738</ele>
        <time>2012-05-22T18:14:30Z</time>
      </trkpt>
      <trkpt lat="-17.53815" lon="-149.82926">
        <ele>168.848755</ele>
        <time>2012-05-22T18:14:46Z</time>
      </trkpt>
      <trkpt lat="-17.53828" lon="-149.82923">
        <ele>170.771362</ele>
        <time>2012-05-22T18:14:58Z</time>
      </trkpt>
      <trkpt lat="-17.53826" lon="-149.82921">
        <ele>170.771362</ele>
        <time>2012-05-22T18:15:01Z</time>
      </trkpt>
      <trkpt lat="-17.5381" lon="-149.82915">
        <ele>172.213257</ele>
        <time>2012-05-22T18:15:11Z</time>
      </trkpt>
      <trkpt lat="-17.5379" lon="-149.82902">
        <ele>173.655273</ele>
        <time>2012-05-22T18:15:26Z</time>
      </trkpt>
      <trkpt lat="-17.53787" lon="-149.82897">
        <ele>174.135864</ele>
        <time>2012-05-22T18:15:31Z</time>
      </trkpt>
      <trkpt lat="-17.53772" lon="-149.82889">
        <ele>175.577881</ele>
        <time>2012-05-22T18:15:45Z</time>
      </trkpt>
      <trkpt lat="-17.53756" lon="-149.82874">
        <ele>177.50061</ele>
        <time>2012-05-22T18:16:02Z</time>
      </trkpt>
      <trkpt lat="-17.53757" lon="-149.82868">
        <ele>178.461914</ele>
        <time>2012-05-22T18:16:07Z</time>
      </trkpt>
      <trkpt lat="-17.53756" lon="-149.82859">
        <ele>178.461914</ele>
        <time>2012-05-22T18:16:13Z</time>
      </trkpt>
      <trkpt lat="-17.53764" lon="-149.82835">
        <ele>181.345825</ele>
        <time>2012-05-22T18:16:29Z</time>
      </trkpt>
      <trkpt lat="-17.53775" lon="-149.82815">
        <ele>183.268433</ele>
        <time>2012-05-22T18:16:45Z</time>
      </trkpt>
      <trkpt lat="-17.53777" lon="-149.82814">
        <ele>183.268433</ele>
        <time>2012-05-22T18:16:47Z</time>
      </trkpt>
      <trkpt lat="-17.53796" lon="-149.82803">
        <ele>185.671753</ele>
        <time>2012-05-22T18:17:03Z</time>
      </trkpt>
      <trkpt lat="-17.53809" lon="-149.82792">
        <ele>188.555786</ele>
        <time>2012-05-22T18:17:15Z</time>
      </trkpt>
      <trkpt lat="-17.53824" lon="-149.82783">
        <ele>191.439575</ele>
        <time>2012-05-22T18:17:29Z</time>
      </trkpt>
      <trkpt lat="-17.53838" lon="-149.82777">
        <ele>194.32373</ele>
        <time>2012-05-22T18:17:41Z</time>
      </trkpt>
      <trkpt lat="-17.53849" lon="-149.82766">
        <ele>197.20752</ele>
        <time>2012-05-22T18:17:55Z</time>
      </trkpt>
      <trkpt lat="-17.53854" lon="-149.82754">
        <ele>200.091675</ele>
        <time>2012-05-22T18:18:06Z</time>
      </trkpt>
      <trkpt lat="-17.53868" lon="-149.82739">
        <ele>202.494873</ele>
        <time>2012-05-22T18:18:20Z</time>
      </trkpt>
      <trkpt lat="-17.53872" lon="-149.82737">
        <ele>202.975464</ele>
        <time>2012-05-22T18:18:22Z</time>
      </trkpt>
      <trkpt lat="-17.53875" lon="-149.82739">
        <ele>203.456177</ele>
        <time>2012-05-22T18:18:24Z</time>
      </trkpt>
      <trkpt lat="-17.53878" lon="-149.82749">
        <ele>202.975464</ele>
        <time>2012-05-22T18:18:31Z</time>
      </trkpt>
      <trkpt lat="-17.53868" lon="-149.82772">
        <ele>204.41748</ele>
        <time>2012-05-22T18:18:50Z</time>
      </trkpt>
      <trkpt lat="-17.53868" lon="-149.82777">
        <ele>204.41748</ele>
        <time>2012-05-22T18:18:54Z</time>
      </trkpt>
      <trkpt lat="-17.53876" lon="-149.8279">
        <ele>206.340088</ele>
        <time>2012-05-22T18:19:07Z</time>
      </trkpt>
      <trkpt lat="-17.53883" lon="-149.82784">
        <ele>206.340088</ele>
        <time>2012-05-22T18:19:16Z</time>
      </trkpt>
      <trkpt lat="-17.53891" lon="-149.82779">
        <ele>208.262817</ele>
        <time>2012-05-22T18:19:25Z</time>
      </trkpt>
      <trkpt lat="-17.53901" lon="-149.82772">
        <ele>209.704834</ele>
        <time>2012-05-22T18:19:35Z</time>
      </trkpt>
      <trkpt lat="-17.53923" lon="-149.82772">
        <ele>210.666016</ele>
        <time>2012-05-22T18:19:49Z</time>
      </trkpt>
      <trkpt lat="-17.5393" lon="-149.82768">
        <ele>212.108032</ele>
        <time>2012-05-22T18:19:56Z</time>
      </trkpt>
      <trkpt lat="-17.5393" lon="-149.82764">
        <ele>212.588623</ele>
        <time>2012-05-22T18:20:01Z</time>
      </trkpt>
      <trkpt lat="-17.53914" lon="-149.82747">
        <ele>214.991943</ele>
        <time>2012-05-22T18:20:19Z</time>
      </trkpt>
      <trkpt lat="-17.53921" lon="-149.82723">
        <ele>215.472656</ele>
        <time>2012-05-22T18:20:36Z</time>
      </trkpt>
      <trkpt lat="-17.5393" lon="-149.82702">
        <ele>217.875977</ele>
        <time>2012-05-22T18:20:54Z</time>
      </trkpt>
      <trkpt lat="-17.53936" lon="-149.82685">
        <ele>220.759888</ele>
        <time>2012-05-22T18:21:08Z</time>
      </trkpt>
      <trkpt lat="-17.53948" lon="-149.82672">
        <ele>222.682495</ele>
        <time>2012-05-22T18:21:22Z</time>
      </trkpt>
      <trkpt lat="-17.53951" lon="-149.82671">
        <ele>223.163208</ele>
        <time>2012-05-22T18:21:24Z</time>
      </trkpt>
      <trkpt lat="-17.53954" lon="-149.82684">
        <ele>224.124512</ele>
        <time>2012-05-22T18:21:37Z</time>
      </trkpt>
      <trkpt lat="-17.53946" lon="-149.82705">
        <ele>225.085938</ele>
        <time>2012-05-22T18:21:54Z</time>
      </trkpt>
      <trkpt lat="-17.53958" lon="-149.82726">
        <ele>227.008545</ele>
        <time>2012-05-22T18:22:12Z</time>
      </trkpt>
      <trkpt lat="-17.5398" lon="-149.82726">
        <ele>229.892334</ele>
        <time>2012-05-22T18:22:29Z</time>
      </trkpt>
      <trkpt lat="-17.53989" lon="-149.82721">
        <ele>230.85376</ele>
        <time>2012-05-22T18:22:36Z</time>
      </trkpt>
      <trkpt lat="-17.5401" lon="-149.82717">
        <ele>233.737671</ele>
        <time>2012-05-22T18:22:53Z</time>
      </trkpt>
      <trkpt lat="-17.54032" lon="-149.82726">
        <ele>234.218384</ele>
        <time>2012-05-22T18:23:09Z</time>
      </trkpt>
      <trkpt lat="-17.54047" lon="-149.82723">
        <ele>237.102295</ele>
        <time>2012-05-22T18:23:23Z</time>
      </trkpt>
      <trkpt lat="-17.54061" lon="-149.82715">
        <ele>239.505493</ele>
        <time>2012-05-22T18:23:38Z</time>
      </trkpt>
      <trkpt lat="-17.5407" lon="-149.82709">
        <ele>240.947632</ele>
        <time>2012-05-22T18:23:46Z</time>
      </trkpt>
      <trkpt lat="-17.54075" lon="-149.82707">
        <ele>240.467041</ele>
        <time>2012-05-22T18:23:49Z</time>
      </trkpt>
      <trkpt lat="-17.54082" lon="-149.82705">
        <ele>241.428223</ele>
        <time>2012-05-22T18:23:54Z</time>
      </trkpt>
      <trkpt lat="-17.54084" lon="-149.82704">
        <ele>242.389648</ele>
        <time>2012-05-22T18:23:56Z</time>
      </trkpt>
      <trkpt lat="-17.54097" lon="-149.82702">
        <ele>243.35083</ele>
        <time>2012-05-22T18:24:05Z</time>
      </trkpt>
      <trkpt lat="-17.54097" lon="-149.82698">
        <ele>244.312256</ele>
        <time>2012-05-22T18:24:11Z</time>
      </trkpt>
      <trkpt lat="-17.54092" lon="-149.82697">
        <ele>244.312256</ele>
        <time>2012-05-22T18:24:15Z</time>
      </trkpt>
      <trkpt lat="-17.5408" lon="-149.82695">
        <ele>246.234863</ele>
        <time>2012-05-22T18:24:24Z</time>
      </trkpt>
      <trkpt lat="-17.54056" lon="-149.82697">
        <ele>246.715454</ele>
        <time>2012-05-22T18:24:41Z</time>
      </trkpt>
      <trkpt lat="-17.54029" lon="-149.82696">
        <ele>250.0802</ele>
        <time>2012-05-22T18:25:00Z</time>
      </trkpt>
      <trkpt lat="-17.54025" lon="-149.82689">
        <ele>250.0802</ele>
        <time>2012-05-22T18:25:05Z</time>
      </trkpt>
      <trkpt lat="-17.54028" lon="-149.82683">
        <ele>251.522095</ele>
        <time>2012-05-22T18:25:10Z</time>
      </trkpt>
      <trkpt lat="-17.54038" lon="-149.82677">
        <ele>252.963989</ele>
        <time>2012-05-22T18:25:18Z</time>
      </trkpt>
      <trkpt lat="-17.54043" lon="-149.82675">
        <ele>253.925415</ele>
        <time>2012-05-22T18:25:23Z</time>
      </trkpt>
      <trkpt lat="-17.54046" lon="-149.82677">
        <ele>253.925415</ele>
        <time>2012-05-22T18:25:27Z</time>
      </trkpt>
      <trkpt lat="-17.54038" lon="-149.82687">
        <ele>254.406006</ele>
        <time>2012-05-22T18:25:45Z</time>
      </trkpt>
      <trkpt lat="-17.54041" lon="-149.82687">
        <ele>254.886597</ele>
        <time>2012-05-22T18:25:59Z</time>
      </trkpt>
      <trkpt lat="-17.54033" lon="-149.8269">
        <ele>253.925415</ele>
        <time>2012-05-22T18:26:13Z</time>
      </trkpt>
      <trkpt lat="-17.5403" lon="-149.8269">
        <ele>253.925415</ele>
        <time>2012-05-22T18:26:37Z</time>
      </trkpt>
      <trkpt lat="-17.54036" lon="-149.82689">
        <ele>254.406006</ele>
        <time>2012-05-22T18:26:56Z</time>
      </trkpt>
      <trkpt lat="-17.54053" lon="-149.82676">
        <ele>254.886597</ele>
        <time>2012-05-22T18:27:14Z</time>
      </trkpt>
      <trkpt lat="-17.54063" lon="-149.82665">
        <ele>254.886597</ele>
        <time>2012-05-22T18:27:28Z</time>
      </trkpt>
      <trkpt lat="-17.54061" lon="-149.82666">
        <ele>255.36731</ele>
        <time>2012-05-22T18:27:34Z</time>
      </trkpt>
      <trkpt lat="-17.54074" lon="-149.82673">
        <ele>255.36731</ele>
        <time>2012-05-22T18:27:48Z</time>
      </trkpt>
      <trkpt lat="-17.54079" lon="-149.82672">
        <ele>255.36731</ele>
        <time>2012-05-22T18:27:57Z</time>
      </trkpt>
      <trkpt lat="-17.54064" lon="-149.82674">
        <ele>255.848022</ele>
        <time>2012-05-22T18:28:09Z</time>
      </trkpt>
      <trkpt lat="-17.54062" lon="-149.82673">
        <ele>255.36731</ele>
        <time>2012-05-22T18:28:17Z</time>
      </trkpt>
      <trkpt lat="-17.54069" lon="-149.82673">
        <ele>254.886597</ele>
        <time>2012-05-22T18:28:37Z</time>
      </trkpt>
      <trkpt lat="-17.54072" lon="-149.82672">
        <ele>255.36731</ele>
        <time>2012-05-22T18:28:39Z</time>
      </trkpt>
      <trkpt lat="-17.54098" lon="-149.82665">
        <ele>258.251343</ele>
        <time>2012-05-22T18:28:54Z</time>
      </trkpt>
      <trkpt lat="-17.54114" lon="-149.82674">
        <ele>257.290039</ele>
        <time>2012-05-22T18:29:04Z</time>
      </trkpt>
      <trkpt lat="-17.5413" lon="-149.82676">
        <ele>255.848022</ele>
        <time>2012-05-22T18:29:17Z</time>
      </trkpt>
      <trkpt lat="-17.54148" lon="-149.82684">
        <ele>254.406006</ele>
        <time>2012-05-22T18:29:32Z</time>
      </trkpt>
      <trkpt lat="-17.54161" lon="-149.82691">
        <ele>252.002808</ele>
        <time>2012-05-22T18:29:44Z</time>
      </trkpt>
      <trkpt lat="-17.54161" lon="-149.82692">
        <ele>252.002808</ele>
        <time>2012-05-22T18:29:45Z</time>
      </trkpt>
      <trkpt lat="-17.54166" lon="-149.82703">
        <ele>252.483398</ele>
        <time>2012-05-22T18:29:58Z</time>
      </trkpt>
      <trkpt lat="-17.54177" lon="-149.82712">
        <ele>253.444702</ele>
        <time>2012-05-22T18:30:11Z</time>
      </trkpt>
      <trkpt lat="-17.54187" lon="-149.82714">
        <ele>255.36731</ele>
        <time>2012-05-22T18:30:23Z</time>
      </trkpt>
      <trkpt lat="-17.54196" lon="-149.82716">
        <ele>255.848022</ele>
        <time>2012-05-22T18:30:35Z</time>
      </trkpt>
      <trkpt lat="-17.54205" lon="-149.8272">
        <ele>256.328735</ele>
        <time>2012-05-22T18:30:48Z</time>
      </trkpt>
      <trkpt lat="-17.54205" lon="-149.82737">
        <ele>256.809326</ele>
        <time>2012-05-22T18:31:01Z</time>
      </trkpt>
      <trkpt lat="-17.54204" lon="-149.8274">
        <ele>257.290039</ele>
        <time>2012-05-22T18:31:04Z</time>
      </trkpt>
      <trkpt lat="-17.54203" lon="-149.82758">
        <ele>257.770752</ele>
        <time>2012-05-22T18:31:18Z</time>
      </trkpt>
      <trkpt lat="-17.54199" lon="-149.82773">
        <ele>257.770752</ele>
        <time>2012-05-22T18:31:33Z</time>
      </trkpt>
      <trkpt lat="-17.54192" lon="-149.82789">
        <ele>257.770752</ele>
        <time>2012-05-22T18:31:46Z</time>
      </trkpt>
      <trkpt lat="-17.54179" lon="-149.82808">
        <ele>255.36731</ele>
        <time>2012-05-22T18:32:03Z</time>
      </trkpt>
      <trkpt lat="-17.54177" lon="-149.8281">
        <ele>254.886597</ele>
        <time>2012-05-22T18:32:05Z</time>
      </trkpt>
      <trkpt lat="-17.54173" lon="-149.8282">
        <ele>254.406006</ele>
        <time>2012-05-22T18:32:13Z</time>
      </trkpt>
      <trkpt lat="-17.5416" lon="-149.82838">
        <ele>252.002808</ele>
        <time>2012-05-22T18:32:29Z</time>
      </trkpt>
      <trkpt lat="-17.54157" lon="-149.82846">
        <ele>251.522095</ele>
        <time>2012-05-22T18:32:35Z</time>
      </trkpt>
      <trkpt lat="-17.54155" lon="-149.82854">
        <ele>250.0802</ele>
        <time>2012-05-22T18:32:42Z</time>
      </trkpt>
      <trkpt lat="-17.54155" lon="-149.8286">
        <ele>250.0802</ele>
        <time>2012-05-22T18:32:58Z</time>
      </trkpt>
      <trkpt lat="-17.54164" lon="-149.82862">
        <ele>247.196045</ele>
        <time>2012-05-22T18:33:14Z</time>
      </trkpt>
      <trkpt lat="-17.54171" lon="-149.8286">
        <ele>246.234863</ele>
        <time>2012-05-22T18:33:33Z</time>
      </trkpt>
      <trkpt lat="-17.54178" lon="-149.82851">
        <ele>245.273438</ele>
        <time>2012-05-22T18:33:50Z</time>
      </trkpt>
      <trkpt lat="-17.54186" lon="-149.82837">
        <ele>244.312256</ele>
        <time>2012-05-22T18:34:03Z</time>
      </trkpt>
      <trkpt lat="-17.54187" lon="-149.82835">
        <ele>243.831543</ele>
        <time>2012-05-22T18:34:05Z</time>
      </trkpt>
      <trkpt lat="-17.54199" lon="-149.82821">
        <ele>243.35083</ele>
        <time>2012-05-22T18:34:18Z</time>
      </trkpt>
      <trkpt lat="-17.54214" lon="-149.82813">
        <ele>242.389648</ele>
        <time>2012-05-22T18:34:32Z</time>
      </trkpt>
      <trkpt lat="-17.54226" lon="-149.82811">
        <ele>241.908936</ele>
        <time>2012-05-22T18:34:45Z</time>
      </trkpt>
      <trkpt lat="-17.54234" lon="-149.82814">
        <ele>241.428223</ele>
        <time>2012-05-22T18:34:52Z</time>
      </trkpt>
      <trkpt lat="-17.54243" lon="-149.82815">
        <ele>241.428223</ele>
        <time>2012-05-22T18:35:10Z</time>
      </trkpt>
      <trkpt lat="-17.54259" lon="-149.82815">
        <ele>240.947632</ele>
        <time>2012-05-22T18:35:25Z</time>
      </trkpt>
      <trkpt lat="-17.54267" lon="-149.82812">
        <ele>241.428223</ele>
        <time>2012-05-22T18:35:32Z</time>
      </trkpt>
      <trkpt lat="-17.5429" lon="-149.82809">
        <ele>240.467041</ele>
        <time>2012-05-22T18:35:46Z</time>
      </trkpt>
      <trkpt lat="-17.54294" lon="-149.82822">
        <ele>240.467041</ele>
        <time>2012-05-22T18:36:22Z</time>
      </trkpt>
      <trkpt lat="-17.54302" lon="-149.82803">
        <ele>239.024902</ele>
        <time>2012-05-22T18:36:42Z</time>
      </trkpt>
      <trkpt lat="-17.54306" lon="-149.82802">
        <ele>239.024902</ele>
        <time>2012-05-22T18:36:45Z</time>
      </trkpt>
      <trkpt lat="-17.54324" lon="-149.82796">
        <ele>238.063599</ele>
        <time>2012-05-22T18:36:58Z</time>
      </trkpt>
      <trkpt lat="-17.54336" lon="-149.82792">
        <ele>236.621704</ele>
        <time>2012-05-22T18:37:09Z</time>
      </trkpt>
      <trkpt lat="-17.54338" lon="-149.8279">
        <ele>235.179688</ele>
        <time>2012-05-22T18:37:20Z</time>
      </trkpt>
      <trkpt lat="-17.54333" lon="-149.82801">
        <ele>232.776489</ele>
        <time>2012-05-22T18:37:35Z</time>
      </trkpt>
      <trkpt lat="-17.5433" lon="-149.82809">
        <ele>232.776489</ele>
        <time>2012-05-22T18:37:41Z</time>
      </trkpt>
      <trkpt lat="-17.54323" lon="-149.82827">
        <ele>229.892334</ele>
        <time>2012-05-22T18:37:59Z</time>
      </trkpt>
      <trkpt lat="-17.54321" lon="-149.82831">
        <ele>228.931152</ele>
        <time>2012-05-22T18:38:02Z</time>
      </trkpt>
      <trkpt lat="-17.54316" lon="-149.82843">
        <ele>227.489136</ele>
        <time>2012-05-22T18:38:14Z</time>
      </trkpt>
      <trkpt lat="-17.54315" lon="-149.82847">
        <ele>226.527832</ele>
        <time>2012-05-22T18:38:18Z</time>
      </trkpt>
      <trkpt lat="-17.54315" lon="-149.82856">
        <ele>227.489136</ele>
        <time>2012-05-22T18:38:24Z</time>
      </trkpt>
      <trkpt lat="-17.54313" lon="-149.82862">
        <ele>226.047119</ele>
        <time>2012-05-22T18:38:29Z</time>
      </trkpt>
      <trkpt lat="-17.54307" lon="-149.82866">
        <ele>225.566528</ele>
        <time>2012-05-22T18:38:35Z</time>
      </trkpt>
      <trkpt lat="-17.54286" lon="-149.8287">
        <ele>223.643799</ele>
        <time>2012-05-22T18:38:49Z</time>
      </trkpt>
      <trkpt lat="-17.54279" lon="-149.8287">
        <ele>221.721191</ele>
        <time>2012-05-22T18:38:55Z</time>
      </trkpt>
      <trkpt lat="-17.54264" lon="-149.82872">
        <ele>221.240601</ele>
        <time>2012-05-22T18:39:09Z</time>
      </trkpt>
      <trkpt lat="-17.54257" lon="-149.8288">
        <ele>219.798584</ele>
        <time>2012-05-22T18:39:21Z</time>
      </trkpt>
      <trkpt lat="-17.54257" lon="-149.82885">
        <ele>217.875977</ele>
        <time>2012-05-22T18:39:33Z</time>
      </trkpt>
      <trkpt lat="-17.54254" lon="-149.82894">
        <ele>215.953247</ele>
        <time>2012-05-22T18:39:47Z</time>
      </trkpt>
      <trkpt lat="-17.54265" lon="-149.82887">
        <ele>213.069336</ele>
        <time>2012-05-22T18:40:02Z</time>
      </trkpt>
      <trkpt lat="-17.54279" lon="-149.82885">
        <ele>212.108032</ele>
        <time>2012-05-22T18:40:22Z</time>
      </trkpt>
      <trkpt lat="-17.54294" lon="-149.82891">
        <ele>210.185425</ele>
        <time>2012-05-22T18:40:40Z</time>
      </trkpt>
      <trkpt lat="-17.54296" lon="-149.82898">
        <ele>207.782104</ele>
        <time>2012-05-22T18:40:58Z</time>
      </trkpt>
      <trkpt lat="-17.54285" lon="-149.82911">
        <ele>205.859497</ele>
        <time>2012-05-22T18:41:13Z</time>
      </trkpt>
      <trkpt lat="-17.54284" lon="-149.82918">
        <ele>202.975464</ele>
        <time>2012-05-22T18:41:26Z</time>
      </trkpt>
      <trkpt lat="-17.54292" lon="-149.82914">
        <ele>202.494873</ele>
        <time>2012-05-22T18:41:39Z</time>
      </trkpt>
      <trkpt lat="-17.54289" lon="-149.82922">
        <ele>200.572266</ele>
        <time>2012-05-22T18:41:49Z</time>
      </trkpt>
      <trkpt lat="-17.54289" lon="-149.82932">
        <ele>198.649536</ele>
        <time>2012-05-22T18:42:01Z</time>
      </trkpt>
      <trkpt lat="-17.54284" lon="-149.8294">
        <ele>196.726929</ele>
        <time>2012-05-22T18:42:13Z</time>
      </trkpt>
      <trkpt lat="-17.54283" lon="-149.82941">
        <ele>196.726929</ele>
        <time>2012-05-22T18:42:14Z</time>
      </trkpt>
      <trkpt lat="-17.54285" lon="-149.8295">
        <ele>194.32373</ele>
        <time>2012-05-22T18:42:27Z</time>
      </trkpt>
      <trkpt lat="-17.54288" lon="-149.8296">
        <ele>190.958984</ele>
        <time>2012-05-22T18:42:42Z</time>
      </trkpt>
      <trkpt lat="-17.54287" lon="-149.82964">
        <ele>190.958984</ele>
        <time>2012-05-22T18:42:56Z</time>
      </trkpt>
      <trkpt lat="-17.54287" lon="-149.82963">
        <ele>191.920288</ele>
        <time>2012-05-22T18:43:12Z</time>
      </trkpt>
      <trkpt lat="-17.54301" lon="-149.82964">
        <ele>192.881714</ele>
        <time>2012-05-22T18:43:28Z</time>
      </trkpt>
      <trkpt lat="-17.54304" lon="-149.82971">
        <ele>192.881714</ele>
        <time>2012-05-22T18:43:43Z</time>
      </trkpt>
      <trkpt lat="-17.54309" lon="-149.82977">
        <ele>196.246338</ele>
        <time>2012-05-22T18:44:04Z</time>
      </trkpt>
      <trkpt lat="-17.54314" lon="-149.82981">
        <ele>199.130127</ele>
        <time>2012-05-22T18:44:15Z</time>
      </trkpt>
      <trkpt lat="-17.54318" lon="-149.82989">
        <ele>200.091675</ele>
        <time>2012-05-22T18:44:29Z</time>
      </trkpt>
      <trkpt lat="-17.54326" lon="-149.82994">
        <ele>200.091675</ele>
        <time>2012-05-22T18:44:41Z</time>
      </trkpt>
      <trkpt lat="-17.54331" lon="-149.83008">
        <ele>199.61084</ele>
        <time>2012-05-22T18:44:57Z</time>
      </trkpt>
      <trkpt lat="-17.54331" lon="-149.83012">
        <ele>200.572266</ele>
        <time>2012-05-22T18:45:00Z</time>
      </trkpt>
      <trkpt lat="-17.54335" lon="-149.83023">
        <ele>201.533569</ele>
        <time>2012-05-22T18:45:14Z</time>
      </trkpt>
      <trkpt lat="-17.5434" lon="-149.83034">
        <ele>201.052856</ele>
        <time>2012-05-22T18:45:28Z</time>
      </trkpt>
      <trkpt lat="-17.54337" lon="-149.83046">
        <ele>200.091675</ele>
        <time>2012-05-22T18:45:43Z</time>
      </trkpt>
      <trkpt lat="-17.54347" lon="-149.83053">
        <ele>202.014282</ele>
        <time>2012-05-22T18:46:01Z</time>
      </trkpt>
      <trkpt lat="-17.54355" lon="-149.83051">
        <ele>205.378784</ele>
        <time>2012-05-22T18:46:15Z</time>
      </trkpt>
      <trkpt lat="-17.54347" lon="-149.83066">
        <ele>207.782104</ele>
        <time>2012-05-22T18:46:30Z</time>
      </trkpt>
      <trkpt lat="-17.54335" lon="-149.83075">
        <ele>209.224121</ele>
        <time>2012-05-22T18:46:45Z</time>
      </trkpt>
      <trkpt lat="-17.54339" lon="-149.83091">
        <ele>211.146729</ele>
        <time>2012-05-22T18:47:02Z</time>
      </trkpt>
      <trkpt lat="-17.54343" lon="-149.83108">
        <ele>211.627441</ele>
        <time>2012-05-22T18:47:16Z</time>
      </trkpt>
      <trkpt lat="-17.54346" lon="-149.83111">
        <ele>211.146729</ele>
        <time>2012-05-22T18:47:21Z</time>
      </trkpt>
      <trkpt lat="-17.5436" lon="-149.8311">
        <ele>210.185425</ele>
        <time>2012-05-22T18:47:35Z</time>
      </trkpt>
      <trkpt lat="-17.5437" lon="-149.83116">
        <ele>210.185425</ele>
        <time>2012-05-22T18:47:48Z</time>
      </trkpt>
      <trkpt lat="-17.54383" lon="-149.83122">
        <ele>208.743408</ele>
        <time>2012-05-22T18:48:02Z</time>
      </trkpt>
      <trkpt lat="-17.54398" lon="-149.83126">
        <ele>208.743408</ele>
        <time>2012-05-22T18:48:17Z</time>
      </trkpt>
      <trkpt lat="-17.5441" lon="-149.83125">
        <ele>209.704834</ele>
        <time>2012-05-22T18:48:29Z</time>
      </trkpt>
      <trkpt lat="-17.54423" lon="-149.83126">
        <ele>210.185425</ele>
        <time>2012-05-22T18:48:40Z</time>
      </trkpt>
      <trkpt lat="-17.54436" lon="-149.83133">
        <ele>209.224121</ele>
        <time>2012-05-22T18:48:56Z</time>
      </trkpt>
      <trkpt lat="-17.5445" lon="-149.83145">
        <ele>209.224121</ele>
        <time>2012-05-22T18:49:10Z</time>
      </trkpt>
      <trkpt lat="-17.54452" lon="-149.83154">
        <ele>210.666016</ele>
        <time>2012-05-22T18:49:21Z</time>
      </trkpt>
      <trkpt lat="-17.54456" lon="-149.83165">
        <ele>210.666016</ele>
        <time>2012-05-22T18:49:33Z</time>
      </trkpt>
      <trkpt lat="-17.54462" lon="-149.8318">
        <ele>211.627441</ele>
        <time>2012-05-22T18:49:47Z</time>
      </trkpt>
      <trkpt lat="-17.54467" lon="-149.8319">
        <ele>212.108032</ele>
        <time>2012-05-22T18:50:12Z</time>
      </trkpt>
      <trkpt lat="-17.54466" lon="-149.83191">
        <ele>211.627441</ele>
        <time>2012-05-22T18:50:13Z</time>
      </trkpt>
      <trkpt lat="-17.5447" lon="-149.83209">
        <ele>212.588623</ele>
        <time>2012-05-22T18:50:28Z</time>
      </trkpt>
      <trkpt lat="-17.54471" lon="-149.83219">
        <ele>213.069336</ele>
        <time>2012-05-22T18:50:39Z</time>
      </trkpt>
      <trkpt lat="-17.54472" lon="-149.83228">
        <ele>213.069336</ele>
        <time>2012-05-22T18:50:50Z</time>
      </trkpt>
      <trkpt lat="-17.54474" lon="-149.83235">
        <ele>213.550049</ele>
        <time>2012-05-22T18:51:03Z</time>
      </trkpt>
      <trkpt lat="-17.54479" lon="-149.83247">
        <ele>214.51123</ele>
        <time>2012-05-22T18:51:32Z</time>
      </trkpt>
      <trkpt lat="-17.5448" lon="-149.83255">
        <ele>214.51123</ele>
        <time>2012-05-22T18:51:45Z</time>
      </trkpt>
      <trkpt lat="-17.54483" lon="-149.83267">
        <ele>214.51123</ele>
        <time>2012-05-22T18:52:03Z</time>
      </trkpt>
      <trkpt lat="-17.54489" lon="-149.83274">
        <ele>214.991943</ele>
        <time>2012-05-22T18:52:14Z</time>
      </trkpt>
      <trkpt lat="-17.54499" lon="-149.83282">
        <ele>216.43396</ele>
        <time>2012-05-22T18:52:27Z</time>
      </trkpt>
      <trkpt lat="-17.545" lon="-149.83283">
        <ele>216.914673</ele>
        <time>2012-05-22T18:52:29Z</time>
      </trkpt>
      <trkpt lat="-17.5451" lon="-149.83296">
        <ele>216.914673</ele>
        <time>2012-05-22T18:52:41Z</time>
      </trkpt>
      <trkpt lat="-17.54515" lon="-149.83305">
        <ele>217.395386</ele>
        <time>2012-05-22T18:52:52Z</time>
      </trkpt>
      <trkpt lat="-17.54518" lon="-149.83316">
        <ele>217.875977</ele>
        <time>2012-05-22T18:53:03Z</time>
      </trkpt>
      <trkpt lat="-17.54518" lon="-149.83318">
        <ele>217.875977</ele>
        <time>2012-05-22T18:53:04Z</time>
      </trkpt>
      <trkpt lat="-17.54514" lon="-149.83329">
        <ele>219.798584</ele>
        <time>2012-05-22T18:53:16Z</time>
      </trkpt>
      <trkpt lat="-17.5452" lon="-149.83345">
        <ele>220.279175</ele>
        <time>2012-05-22T18:53:29Z</time>
      </trkpt>
      <trkpt lat="-17.54518" lon="-149.83359">
        <ele>219.317993</ele>
        <time>2012-05-22T18:53:46Z</time>
      </trkpt>
      <trkpt lat="-17.54514" lon="-149.83369">
        <ele>219.317993</ele>
        <time>2012-05-22T18:53:56Z</time>
      </trkpt>
      <trkpt lat="-17.54513" lon="-149.83383">
        <ele>217.395386</ele>
        <time>2012-05-22T18:54:09Z</time>
      </trkpt>
      <trkpt lat="-17.54514" lon="-149.83394">
        <ele>216.914673</ele>
        <time>2012-05-22T18:54:19Z</time>
      </trkpt>
      <trkpt lat="-17.5451" lon="-149.8341">
        <ele>215.953247</ele>
        <time>2012-05-22T18:54:32Z</time>
      </trkpt>
      <trkpt lat="-17.54505" lon="-149.83421">
        <ele>215.472656</ele>
        <time>2012-05-22T18:54:44Z</time>
      </trkpt>
      <trkpt lat="-17.54503" lon="-149.83438">
        <ele>214.991943</ele>
        <time>2012-05-22T18:54:58Z</time>
      </trkpt>
      <trkpt lat="-17.54504" lon="-149.83453">
        <ele>213.550049</ele>
        <time>2012-05-22T18:55:12Z</time>
      </trkpt>
      <trkpt lat="-17.54516" lon="-149.83466">
        <ele>212.108032</ele>
        <time>2012-05-22T18:55:26Z</time>
      </trkpt>
      <trkpt lat="-17.54527" lon="-149.83482">
        <ele>210.666016</ele>
        <time>2012-05-22T18:55:39Z</time>
      </trkpt>
      <trkpt lat="-17.54522" lon="-149.8349">
        <ele>208.743408</ele>
        <time>2012-05-22T18:55:52Z</time>
      </trkpt>
      <trkpt lat="-17.54525" lon="-149.83502">
        <ele>208.262817</ele>
        <time>2012-05-22T18:56:04Z</time>
      </trkpt>
      <trkpt lat="-17.54519" lon="-149.83511">
        <ele>206.820679</ele>
        <time>2012-05-22T18:56:15Z</time>
      </trkpt>
      <trkpt lat="-17.54512" lon="-149.83519">
        <ele>204.898071</ele>
        <time>2012-05-22T18:56:30Z</time>
      </trkpt>
      <trkpt lat="-17.54506" lon="-149.83521">
        <ele>204.41748</ele>
        <time>2012-05-22T18:56:47Z</time>
      </trkpt>
      <trkpt lat="-17.54506" lon="-149.8352">
        <ele>203.456177</ele>
        <time>2012-05-22T18:57:05Z</time>
      </trkpt>
      <trkpt lat="-17.54515" lon="-149.83517">
        <ele>204.898071</ele>
        <time>2012-05-22T18:57:22Z</time>
      </trkpt>
      <trkpt lat="-17.54508" lon="-149.83515">
        <ele>204.898071</ele>
        <time>2012-05-22T18:57:47Z</time>
      </trkpt>
      <trkpt lat="-17.54516" lon="-149.8352">
        <ele>204.41748</ele>
        <time>2012-05-22T18:57:58Z</time>
      </trkpt>
      <trkpt lat="-17.54517" lon="-149.83524">
        <ele>205.378784</ele>
        <time>2012-05-22T18:58:03Z</time>
      </trkpt>
      <trkpt lat="-17.54522" lon="-149.83531">
        <ele>207.782104</ele>
        <time>2012-05-22T18:58:11Z</time>
      </trkpt>
      <trkpt lat="-17.54524" lon="-149.83538">
        <ele>210.185425</ele>
        <time>2012-05-22T18:58:24Z</time>
      </trkpt>
      <trkpt lat="-17.54517" lon="-149.83546">
        <ele>212.108032</ele>
        <time>2012-05-22T18:58:36Z</time>
      </trkpt>
      <trkpt lat="-17.5451" lon="-149.83554">
        <ele>212.108032</ele>
        <time>2012-05-22T18:58:49Z</time>
      </trkpt>
      <trkpt lat="-17.54506" lon="-149.83563">
        <ele>213.069336</ele>
        <time>2012-05-22T18:59:01Z</time>
      </trkpt>
      <trkpt lat="-17.54507" lon="-149.83573">
        <ele>214.991943</ele>
        <time>2012-05-22T18:59:22Z</time>
      </trkpt>
      <trkpt lat="-17.54511" lon="-149.83578">
        <ele>214.991943</ele>
        <time>2012-05-22T18:59:39Z</time>
      </trkpt>
      <trkpt lat="-17.5451" lon="-149.83574">
        <ele>214.991943</ele>
        <time>2012-05-22T19:00:12Z</time>
      </trkpt>
      <trkpt lat="-17.5452" lon="-149.83587">
        <ele>214.991943</ele>
        <time>2012-05-22T19:00:35Z</time>
      </trkpt>
      <trkpt lat="-17.5453" lon="-149.83598">
        <ele>216.43396</ele>
        <time>2012-05-22T19:00:54Z</time>
      </trkpt>
      <trkpt lat="-17.54546" lon="-149.83608">
        <ele>216.43396</ele>
        <time>2012-05-22T19:01:25Z</time>
      </trkpt>
      <trkpt lat="-17.54546" lon="-149.83616">
        <ele>216.43396</ele>
        <time>2012-05-22T19:01:37Z</time>
      </trkpt>
      <trkpt lat="-17.54549" lon="-149.83627">
        <ele>217.395386</ele>
        <time>2012-05-22T19:01:48Z</time>
      </trkpt>
      <trkpt lat="-17.54555" lon="-149.8364">
        <ele>218.356567</ele>
        <time>2012-05-22T19:01:58Z</time>
      </trkpt>
      <trkpt lat="-17.54559" lon="-149.83657">
        <ele>219.798584</ele>
        <time>2012-05-22T19:02:10Z</time>
      </trkpt>
      <trkpt lat="-17.54559" lon="-149.83668">
        <ele>221.721191</ele>
        <time>2012-05-22T19:02:24Z</time>
      </trkpt>
      <trkpt lat="-17.54562" lon="-149.83674">
        <ele>222.201782</ele>
        <time>2012-05-22T19:02:34Z</time>
      </trkpt>
      <trkpt lat="-17.54563" lon="-149.83693">
        <ele>224.605225</ele>
        <time>2012-05-22T19:02:48Z</time>
      </trkpt>
      <trkpt lat="-17.54559" lon="-149.83703">
        <ele>224.605225</ele>
        <time>2012-05-22T19:02:58Z</time>
      </trkpt>
      <trkpt lat="-17.54557" lon="-149.83705">
        <ele>224.124512</ele>
        <time>2012-05-22T19:03:00Z</time>
      </trkpt>
      <trkpt lat="-17.54561" lon="-149.83721">
        <ele>225.085938</ele>
        <time>2012-05-22T19:03:15Z</time>
      </trkpt>
      <trkpt lat="-17.54565" lon="-149.83737">
        <ele>226.047119</ele>
        <time>2012-05-22T19:03:31Z</time>
      </trkpt>
      <trkpt lat="-17.54566" lon="-149.83757">
        <ele>229.411743</ele>
        <time>2012-05-22T19:03:48Z</time>
      </trkpt>
      <trkpt lat="-17.54566" lon="-149.83768">
        <ele>231.334351</ele>
        <time>2012-05-22T19:04:00Z</time>
      </trkpt>
      <trkpt lat="-17.54567" lon="-149.83772">
        <ele>234.218384</ele>
        <time>2012-05-22T19:04:06Z</time>
      </trkpt>
      <trkpt lat="-17.54555" lon="-149.8378">
        <ele>235.660278</ele>
        <time>2012-05-22T19:04:23Z</time>
      </trkpt>
      <trkpt lat="-17.54554" lon="-149.83792">
        <ele>237.582886</ele>
        <time>2012-05-22T19:04:36Z</time>
      </trkpt>
      <trkpt lat="-17.54552" lon="-149.83804">
        <ele>238.544312</ele>
        <time>2012-05-22T19:04:48Z</time>
      </trkpt>
      <trkpt lat="-17.54552" lon="-149.83815">
        <ele>239.024902</ele>
        <time>2012-05-22T19:05:01Z</time>
      </trkpt>
      <trkpt lat="-17.54554" lon="-149.83826">
        <ele>239.986206</ele>
        <time>2012-05-22T19:05:12Z</time>
      </trkpt>
      <trkpt lat="-17.54552" lon="-149.83836">
        <ele>240.467041</ele>
        <time>2012-05-22T19:05:23Z</time>
      </trkpt>
      <trkpt lat="-17.5455" lon="-149.83846">
        <ele>240.947632</ele>
        <time>2012-05-22T19:05:33Z</time>
      </trkpt>
      <trkpt lat="-17.54549" lon="-149.83859">
        <ele>240.947632</ele>
        <time>2012-05-22T19:05:45Z</time>
      </trkpt>
      <trkpt lat="-17.54545" lon="-149.8387">
        <ele>241.428223</ele>
        <time>2012-05-22T19:05:58Z</time>
      </trkpt>
      <trkpt lat="-17.54539" lon="-149.83882">
        <ele>244.312256</ele>
        <time>2012-05-22T19:06:11Z</time>
      </trkpt>
      <trkpt lat="-17.54538" lon="-149.8389">
        <ele>245.273438</ele>
        <time>2012-05-22T19:06:24Z</time>
      </trkpt>
      <trkpt lat="-17.54539" lon="-149.839">
        <ele>246.715454</ele>
        <time>2012-05-22T19:06:36Z</time>
      </trkpt>
      <trkpt lat="-17.54545" lon="-149.83902">
        <ele>248.157593</ele>
        <time>2012-05-22T19:06:47Z</time>
      </trkpt>
      <trkpt lat="-17.54544" lon="-149.83911">
        <ele>250.0802</ele>
        <time>2012-05-22T19:07:03Z</time>
      </trkpt>
      <trkpt lat="-17.54547" lon="-149.8392">
        <ele>252.483398</ele>
        <time>2012-05-22T19:07:16Z</time>
      </trkpt>
      <trkpt lat="-17.54543" lon="-149.83929">
        <ele>254.886597</ele>
        <time>2012-05-22T19:07:31Z</time>
      </trkpt>
      <trkpt lat="-17.54538" lon="-149.8394">
        <ele>254.886597</ele>
        <time>2012-05-22T19:07:43Z</time>
      </trkpt>
      <trkpt lat="-17.5454" lon="-149.83946">
        <ele>254.406006</ele>
        <time>2012-05-22T19:07:55Z</time>
      </trkpt>
      <trkpt lat="-17.54535" lon="-149.83951">
        <ele>255.848022</ele>
        <time>2012-05-22T19:08:06Z</time>
      </trkpt>
      <trkpt lat="-17.54525" lon="-149.83956">
        <ele>256.328735</ele>
        <time>2012-05-22T19:08:21Z</time>
      </trkpt>
      <trkpt lat="-17.54518" lon="-149.83961">
        <ele>257.290039</ele>
        <time>2012-05-22T19:08:34Z</time>
      </trkpt>
      <trkpt lat="-17.54511" lon="-149.83974">
        <ele>257.770752</ele>
        <time>2012-05-22T19:08:51Z</time>
      </trkpt>
      <trkpt lat="-17.54505" lon="-149.83976">
        <ele>256.809326</ele>
        <time>2012-05-22T19:09:04Z</time>
      </trkpt>
      <trkpt lat="-17.54505" lon="-149.83975">
        <ele>257.290039</ele>
        <time>2012-05-22T19:09:42Z</time>
      </trkpt>
      <trkpt lat="-17.54504" lon="-149.83976">
        <ele>257.290039</ele>
        <time>2012-05-22T19:09:59Z</time>
      </trkpt>
      <trkpt lat="-17.54509" lon="-149.83984">
        <ele>258.251343</ele>
        <time>2012-05-22T19:10:10Z</time>
      </trkpt>
      <trkpt lat="-17.54508" lon="-149.83992">
        <ele>258.731934</ele>
        <time>2012-05-22T19:10:22Z</time>
      </trkpt>
      <trkpt lat="-17.54511" lon="-149.84003">
        <ele>257.770752</ele>
        <time>2012-05-22T19:10:34Z</time>
      </trkpt>
      <trkpt lat="-17.54513" lon="-149.84016">
        <ele>257.770752</ele>
        <time>2012-05-22T19:10:46Z</time>
      </trkpt>
      <trkpt lat="-17.54517" lon="-149.84028">
        <ele>256.328735</ele>
        <time>2012-05-22T19:11:00Z</time>
      </trkpt>
      <trkpt lat="-17.54513" lon="-149.84027">
        <ele>255.848022</ele>
        <time>2012-05-22T19:11:23Z</time>
      </trkpt>
      <trkpt lat="-17.5451" lon="-149.84017">
        <ele>257.770752</ele>
        <time>2012-05-22T19:11:35Z</time>
      </trkpt>
      <trkpt lat="-17.54512" lon="-149.84005">
        <ele>259.212646</ele>
        <time>2012-05-22T19:11:49Z</time>
      </trkpt>
      <trkpt lat="-17.54508" lon="-149.83994">
        <ele>259.212646</ele>
        <time>2012-05-22T19:12:02Z</time>
      </trkpt>
      <trkpt lat="-17.54508" lon="-149.83979">
        <ele>258.251343</ele>
        <time>2012-05-22T19:12:16Z</time>
      </trkpt>
      <trkpt lat="-17.54514" lon="-149.83974">
        <ele>258.731934</ele>
        <time>2012-05-22T19:12:29Z</time>
      </trkpt>
      <trkpt lat="-17.54525" lon="-149.83975">
        <ele>262.577148</ele>
        <time>2012-05-22T19:12:42Z</time>
      </trkpt>
      <trkpt lat="-17.54526" lon="-149.83976">
        <ele>263.057861</ele>
        <time>2012-05-22T19:12:43Z</time>
      </trkpt>
      <trkpt lat="-17.54534" lon="-149.83976">
        <ele>265.461304</ele>
        <time>2012-05-22T19:12:53Z</time>
      </trkpt>
      <trkpt lat="-17.54546" lon="-149.83977">
        <ele>265.941895</ele>
        <time>2012-05-22T19:13:06Z</time>
      </trkpt>
      <trkpt lat="-17.54556" lon="-149.83971">
        <ele>266.422485</ele>
        <time>2012-05-22T19:13:19Z</time>
      </trkpt>
      <trkpt lat="-17.54567" lon="-149.83967">
        <ele>267.383911</ele>
        <time>2012-05-22T19:13:33Z</time>
      </trkpt>
      <trkpt lat="-17.54577" lon="-149.83962">
        <ele>268.345093</ele>
        <time>2012-05-22T19:13:46Z</time>
      </trkpt>
      <trkpt lat="-17.54589" lon="-149.83968">
        <ele>270.2677</ele>
        <time>2012-05-22T19:14:00Z</time>
      </trkpt>
      <trkpt lat="-17.54602" lon="-149.8397">
        <ele>272.671143</ele>
        <time>2012-05-22T19:14:16Z</time>
      </trkpt>
      <trkpt lat="-17.54606" lon="-149.83984">
        <ele>276.035645</ele>
        <time>2012-05-22T19:14:38Z</time>
      </trkpt>
      <trkpt lat="-17.54611" lon="-149.83993">
        <ele>276.516357</ele>
        <time>2012-05-22T19:14:48Z</time>
      </trkpt>
      <trkpt lat="-17.54613" lon="-149.83993">
        <ele>276.99707</ele>
        <time>2012-05-22T19:15:05Z</time>
      </trkpt>
      <trkpt lat="-17.54614" lon="-149.83998">
        <ele>278.919678</ele>
        <time>2012-05-22T19:15:13Z</time>
      </trkpt>
      <trkpt lat="-17.54625" lon="-149.84007">
        <ele>281.803589</ele>
        <time>2012-05-22T19:15:30Z</time>
      </trkpt>
      <trkpt lat="-17.54632" lon="-149.84014">
        <ele>284.206909</ele>
        <time>2012-05-22T19:15:52Z</time>
      </trkpt>
      <trkpt lat="-17.54641" lon="-149.84006">
        <ele>286.129517</ele>
        <time>2012-05-22T19:16:09Z</time>
      </trkpt>
      <trkpt lat="-17.54651" lon="-149.8401">
        <ele>289.01355</ele>
        <time>2012-05-22T19:16:26Z</time>
      </trkpt>
      <trkpt lat="-17.54654" lon="-149.84007">
        <ele>289.974854</ele>
        <time>2012-05-22T19:16:47Z</time>
      </trkpt>
      <trkpt lat="-17.54662" lon="-149.83997">
        <ele>293.339355</ele>
        <time>2012-05-22T19:17:06Z</time>
      </trkpt>
      <trkpt lat="-17.54663" lon="-149.83993">
        <ele>294.781372</ele>
        <time>2012-05-22T19:17:12Z</time>
      </trkpt>
      <trkpt lat="-17.5467" lon="-149.83987">
        <ele>294.781372</ele>
        <time>2012-05-22T19:17:26Z</time>
      </trkpt>
      <trkpt lat="-17.54677" lon="-149.8398">
        <ele>295.261963</ele>
        <time>2012-05-22T19:17:39Z</time>
      </trkpt>
      <trkpt lat="-17.54685" lon="-149.83972">
        <ele>295.742676</ele>
        <time>2012-05-22T19:17:53Z</time>
      </trkpt>
      <trkpt lat="-17.54691" lon="-149.83968">
        <ele>296.704102</ele>
        <time>2012-05-22T19:18:08Z</time>
      </trkpt>
      <trkpt lat="-17.54692" lon="-149.83956">
        <ele>299.1073</ele>
        <time>2012-05-22T19:18:26Z</time>
      </trkpt>
      <trkpt lat="-17.54698" lon="-149.8395">
        <ele>300.549316</ele>
        <time>2012-05-22T19:18:43Z</time>
      </trkpt>
      <trkpt lat="-17.54712" lon="-149.83948">
        <ele>302.471924</ele>
        <time>2012-05-22T19:19:05Z</time>
      </trkpt>
      <trkpt lat="-17.5472" lon="-149.83942">
        <ele>305.83667</ele>
        <time>2012-05-22T19:19:27Z</time>
      </trkpt>
      <trkpt lat="-17.54727" lon="-149.83933">
        <ele>309.201172</ele>
        <time>2012-05-22T19:19:44Z</time>
      </trkpt>
      <trkpt lat="-17.54738" lon="-149.83941">
        <ele>312.085205</ele>
        <time>2012-05-22T19:20:20Z</time>
      </trkpt>
      <trkpt lat="-17.54738" lon="-149.83948">
        <ele>313.046509</ele>
        <time>2012-05-22T19:20:26Z</time>
      </trkpt>
      <trkpt lat="-17.54735" lon="-149.83953">
        <ele>313.527222</ele>
        <time>2012-05-22T19:20:33Z</time>
      </trkpt>
      <trkpt lat="-17.54728" lon="-149.83965">
        <ele>314.488403</ele>
        <time>2012-05-22T19:20:47Z</time>
      </trkpt>
      <trkpt lat="-17.54722" lon="-149.83983">
        <ele>315.449829</ele>
        <time>2012-05-22T19:21:17Z</time>
      </trkpt>
      <trkpt lat="-17.54734" lon="-149.83963">
        <ele>316.891724</ele>
        <time>2012-05-22T19:21:58Z</time>
      </trkpt>
      <trkpt lat="-17.54736" lon="-149.83956">
        <ele>318.814331</ele>
        <time>2012-05-22T19:22:07Z</time>
      </trkpt>
      <trkpt lat="-17.5474" lon="-149.83969">
        <ele>319.775635</ele>
        <time>2012-05-22T19:22:22Z</time>
      </trkpt>
      <trkpt lat="-17.54737" lon="-149.83977">
        <ele>320.737061</ele>
        <time>2012-05-22T19:22:38Z</time>
      </trkpt>
      <trkpt lat="-17.54738" lon="-149.83988">
        <ele>323.620972</ele>
        <time>2012-05-22T19:22:59Z</time>
      </trkpt>
      <trkpt lat="-17.54736" lon="-149.84">
        <ele>326.985596</ele>
        <time>2012-05-22T19:23:15Z</time>
      </trkpt>
      <trkpt lat="-17.54733" lon="-149.83995">
        <ele>329.388916</ele>
        <time>2012-05-22T19:23:37Z</time>
      </trkpt>
      <trkpt lat="-17.54736" lon="-149.83989">
        <ele>330.35022</ele>
        <time>2012-05-22T19:23:46Z</time>
      </trkpt>
      <trkpt lat="-17.54744" lon="-149.83976">
        <ele>330.830933</ele>
        <time>2012-05-22T19:24:02Z</time>
      </trkpt>
      <trkpt lat="-17.54743" lon="-149.83991">
        <ele>332.75354</ele>
        <time>2012-05-22T19:24:21Z</time>
      </trkpt>
      <trkpt lat="-17.54743" lon="-149.84008">
        <ele>336.118164</ele>
        <time>2012-05-22T19:24:41Z</time>
      </trkpt>
      <trkpt lat="-17.54739" lon="-149.84024">
        <ele>337.560059</ele>
        <time>2012-05-22T19:25:23Z</time>
      </trkpt>
      <trkpt lat="-17.54743" lon="-149.84037">
        <ele>339.002075</ele>
        <time>2012-05-22T19:25:37Z</time>
      </trkpt>
      <trkpt lat="-17.54741" lon="-149.84054">
        <ele>341.405273</ele>
        <time>2012-05-22T19:26:00Z</time>
      </trkpt>
      <trkpt lat="-17.54741" lon="-149.84058">
        <ele>341.405273</ele>
        <time>2012-05-22T19:26:05Z</time>
      </trkpt>
      <trkpt lat="-17.54742" lon="-149.84068">
        <ele>344.289429</ele>
        <time>2012-05-22T19:26:16Z</time>
      </trkpt>
      <trkpt lat="-17.54741" lon="-149.84082">
        <ele>346.212036</ele>
        <time>2012-05-22T19:26:34Z</time>
      </trkpt>
      <trkpt lat="-17.54741" lon="-149.84089">
        <ele>348.134644</ele>
        <time>2012-05-22T19:26:47Z</time>
      </trkpt>
      <trkpt lat="-17.54746" lon="-149.84082">
        <ele>350.057251</ele>
        <time>2012-05-22T19:26:59Z</time>
      </trkpt>
      <trkpt lat="-17.54747" lon="-149.8409">
        <ele>352.460571</ele>
        <time>2012-05-22T19:27:13Z</time>
      </trkpt>
      <trkpt lat="-17.54745" lon="-149.84094">
        <ele>354.383179</ele>
        <time>2012-05-22T19:27:25Z</time>
      </trkpt>
      <trkpt lat="-17.54743" lon="-149.84101">
        <ele>356.305786</ele>
        <time>2012-05-22T19:27:35Z</time>
      </trkpt>
      <trkpt lat="-17.54744" lon="-149.84099">
        <ele>358.228394</ele>
        <time>2012-05-22T19:27:44Z</time>
      </trkpt>
      <trkpt lat="-17.54748" lon="-149.84091">
        <ele>360.151123</ele>
        <time>2012-05-22T19:27:59Z</time>
      </trkpt>
      <trkpt lat="-17.54751" lon="-149.84092">
        <ele>362.554321</ele>
        <time>2012-05-22T19:28:13Z</time>
      </trkpt>
      <trkpt lat="-17.5475" lon="-149.84101">
        <ele>365.438354</ele>
        <time>2012-05-22T19:28:30Z</time>
      </trkpt>
      <trkpt lat="-17.54749" lon="-149.84103">
        <ele>366.399536</ele>
        <time>2012-05-22T19:28:45Z</time>
      </trkpt>
      <trkpt lat="-17.5475" lon="-149.84099">
        <ele>366.880249</ele>
        <time>2012-05-22T19:29:01Z</time>
      </trkpt>
      <trkpt lat="-17.54755" lon="-149.84093">
        <ele>369.764282</ele>
        <time>2012-05-22T19:29:13Z</time>
      </trkpt>
      <trkpt lat="-17.5476" lon="-149.84092">
        <ele>371.206299</ele>
        <time>2012-05-22T19:29:28Z</time>
      </trkpt>
      <trkpt lat="-17.54759" lon="-149.84097">
        <ele>373.128906</ele>
        <time>2012-05-22T19:29:42Z</time>
      </trkpt>
      <trkpt lat="-17.54756" lon="-149.84103">
        <ele>375.532104</ele>
        <time>2012-05-22T19:29:57Z</time>
      </trkpt>
      <trkpt lat="-17.54756" lon="-149.84106">
        <ele>376.974243</ele>
        <time>2012-05-22T19:30:00Z</time>
      </trkpt>
      <trkpt lat="-17.54756" lon="-149.84116">
        <ele>378.416138</ele>
        <time>2012-05-22T19:30:13Z</time>
      </trkpt>
      <trkpt lat="-17.54756" lon="-149.84122">
        <ele>380.819458</ele>
        <time>2012-05-22T19:30:26Z</time>
      </trkpt>
      <trkpt lat="-17.54754" lon="-149.84131">
        <ele>382.742065</ele>
        <time>2012-05-22T19:30:39Z</time>
      </trkpt>
      <trkpt lat="-17.54752" lon="-149.84145">
        <ele>384.664795</ele>
        <time>2012-05-22T19:30:56Z</time>
      </trkpt>
      <trkpt lat="-17.54751" lon="-149.8415">
        <ele>386.106689</ele>
        <time>2012-05-22T19:31:16Z</time>
      </trkpt>
      <trkpt lat="-17.54749" lon="-149.84154">
        <ele>389.471191</ele>
        <time>2012-05-22T19:31:26Z</time>
      </trkpt>
      <trkpt lat="-17.54751" lon="-149.8416">
        <ele>391.393799</ele>
        <time>2012-05-22T19:31:40Z</time>
      </trkpt>
      <trkpt lat="-17.54751" lon="-149.84162">
        <ele>391.874512</ele>
        <time>2012-05-22T19:31:55Z</time>
      </trkpt>
      <trkpt lat="-17.54751" lon="-149.8417">
        <ele>392.355347</ele>
        <time>2012-05-22T19:32:13Z</time>
      </trkpt>
      <trkpt lat="-17.54753" lon="-149.8418">
        <ele>393.316528</ele>
        <time>2012-05-22T19:32:27Z</time>
      </trkpt>
      <trkpt lat="-17.54754" lon="-149.84191">
        <ele>394.277954</ele>
        <time>2012-05-22T19:32:43Z</time>
      </trkpt>
      <trkpt lat="-17.54754" lon="-149.84198">
        <ele>394.277954</ele>
        <time>2012-05-22T19:32:58Z</time>
      </trkpt>
      <trkpt lat="-17.54755" lon="-149.84207">
        <ele>392.835938</ele>
        <time>2012-05-22T19:33:40Z</time>
      </trkpt>
      <trkpt lat="-17.54756" lon="-149.84219">
        <ele>395.719849</ele>
        <time>2012-05-22T19:33:53Z</time>
      </trkpt>
      <trkpt lat="-17.54754" lon="-149.8422">
        <ele>396.681152</ele>
        <time>2012-05-22T19:34:05Z</time>
      </trkpt>
      <trkpt lat="-17.54751" lon="-149.84213">
        <ele>398.123169</ele>
        <time>2012-05-22T19:34:21Z</time>
      </trkpt>
      <trkpt lat="-17.54748" lon="-149.84213">
        <ele>401.00708</ele>
        <time>2012-05-22T19:34:40Z</time>
      </trkpt>
      <trkpt lat="-17.54744" lon="-149.84205">
        <ele>404.371704</ele>
        <time>2012-05-22T19:34:49Z</time>
      </trkpt>
      <trkpt lat="-17.54743" lon="-149.84193">
        <ele>406.774902</ele>
        <time>2012-05-22T19:35:05Z</time>
      </trkpt>
      <trkpt lat="-17.54741" lon="-149.8418">
        <ele>409.178345</ele>
        <time>2012-05-22T19:35:19Z</time>
      </trkpt>
      <trkpt lat="-17.54738" lon="-149.84179">
        <ele>410.620239</ele>
        <time>2012-05-22T19:35:25Z</time>
      </trkpt>
      <trkpt lat="-17.54732" lon="-149.84189">
        <ele>413.504272</ele>
        <time>2012-05-22T19:35:38Z</time>
      </trkpt>
      <trkpt lat="-17.5473" lon="-149.84193">
        <ele>412.062256</ele>
        <time>2012-05-22T19:35:50Z</time>
      </trkpt>
      <trkpt lat="-17.54732" lon="-149.84192">
        <ele>412.542847</ele>
        <time>2012-05-22T19:37:04Z</time>
      </trkpt>
      <trkpt lat="-17.54731" lon="-149.84192">
        <ele>413.504272</ele>
        <time>2012-05-22T19:40:16Z</time>
      </trkpt>
      <trkpt lat="-17.54731" lon="-149.84192">
        <ele>412.542847</ele>
        <time>2012-05-22T19:41:37Z</time>
      </trkpt>
      <trkpt lat="-17.54731" lon="-149.84192">
        <ele>414.465454</ele>
        <time>2012-05-22T19:41:56Z</time>
      </trkpt>
      <trkpt lat="-17.54731" lon="-149.84193">
        <ele>414.465454</ele>
        <time>2012-05-22T19:42:29Z</time>
      </trkpt>
      <trkpt lat="-17.54732" lon="-149.84189">
        <ele>413.984863</ele>
        <time>2012-05-22T19:42:58Z</time>
      </trkpt>
      <trkpt lat="-17.5473" lon="-149.84194">
        <ele>414.946167</ele>
        <time>2012-05-22T19:43:11Z</time>
      </trkpt>
      <trkpt lat="-17.5473" lon="-149.84193">
        <ele>414.465454</ele>
        <time>2012-05-22T19:43:20Z</time>
      </trkpt>
      <trkpt lat="-17.54737" lon="-149.84179">
        <ele>412.062256</ele>
        <time>2012-05-22T19:43:38Z</time>
      </trkpt>
      <trkpt lat="-17.54742" lon="-149.84179">
        <ele>411.100952</ele>
        <time>2012-05-22T19:43:55Z</time>
      </trkpt>
      <trkpt lat="-17.54743" lon="-149.84193">
        <ele>408.217041</ele>
        <time>2012-05-22T19:44:14Z</time>
      </trkpt>
      <trkpt lat="-17.54744" lon="-149.84199">
        <ele>405.813721</ele>
        <time>2012-05-22T19:44:30Z</time>
      </trkpt>
      <trkpt lat="-17.54746" lon="-149.84206">
        <ele>402.929688</ele>
        <time>2012-05-22T19:44:43Z</time>
      </trkpt>
      <trkpt lat="-17.54748" lon="-149.8421">
        <ele>401.00708</ele>
        <time>2012-05-22T19:44:58Z</time>
      </trkpt>
      <trkpt lat="-17.54749" lon="-149.84208">
        <ele>400.526489</ele>
        <time>2012-05-22T19:45:19Z</time>
      </trkpt>
      <trkpt lat="-17.54752" lon="-149.84214">
        <ele>398.60376</ele>
        <time>2012-05-22T19:46:04Z</time>
      </trkpt>
      <trkpt lat="-17.54754" lon="-149.8422">
        <ele>397.161743</ele>
        <time>2012-05-22T19:46:16Z</time>
      </trkpt>
      <trkpt lat="-17.54754" lon="-149.84216">
        <ele>393.797241</ele>
        <time>2012-05-22T19:46:34Z</time>
      </trkpt>
      <trkpt lat="-17.54751" lon="-149.84203">
        <ele>393.797241</ele>
        <time>2012-05-22T19:46:50Z</time>
      </trkpt>
      <trkpt lat="-17.54752" lon="-149.84193">
        <ele>393.316528</ele>
        <time>2012-05-22T19:47:00Z</time>
      </trkpt>
      <trkpt lat="-17.54751" lon="-149.84179">
        <ele>392.355347</ele>
        <time>2012-05-22T19:47:17Z</time>
      </trkpt>
      <trkpt lat="-17.54749" lon="-149.84168">
        <ele>391.393799</ele>
        <time>2012-05-22T19:47:28Z</time>
      </trkpt>
      <trkpt lat="-17.54749" lon="-149.84159">
        <ele>389.951904</ele>
        <time>2012-05-22T19:47:41Z</time>
      </trkpt>
      <trkpt lat="-17.54749" lon="-149.84154">
        <ele>387.067993</ele>
        <time>2012-05-22T19:47:54Z</time>
      </trkpt>
      <trkpt lat="-17.5475" lon="-149.84153">
        <ele>385.625977</ele>
        <time>2012-05-22T19:47:57Z</time>
      </trkpt>
      <trkpt lat="-17.54754" lon="-149.84142">
        <ele>382.742065</ele>
        <time>2012-05-22T19:48:15Z</time>
      </trkpt>
      <trkpt lat="-17.54755" lon="-149.84129">
        <ele>380.819458</ele>
        <time>2012-05-22T19:48:33Z</time>
      </trkpt>
      <trkpt lat="-17.54755" lon="-149.84124">
        <ele>378.896851</ele>
        <time>2012-05-22T19:48:42Z</time>
      </trkpt>
      <trkpt lat="-17.54755" lon="-149.84121">
        <ele>376.012817</ele>
        <time>2012-05-22T19:48:47Z</time>
      </trkpt>
      <trkpt lat="-17.54757" lon="-149.84111">
        <ele>375.051514</ele>
        <time>2012-05-22T19:49:02Z</time>
      </trkpt>
      <trkpt lat="-17.54762" lon="-149.84103">
        <ele>371.68689</ele>
        <time>2012-05-22T19:49:16Z</time>
      </trkpt>
      <trkpt lat="-17.54761" lon="-149.84101">
        <ele>372.16748</ele>
        <time>2012-05-22T19:49:17Z</time>
      </trkpt>
      <trkpt lat="-17.54759" lon="-149.84094">
        <ele>367.841553</ele>
        <time>2012-05-22T19:49:35Z</time>
      </trkpt>
      <trkpt lat="-17.54759" lon="-149.84094">
        <ele>368.322266</ele>
        <time>2012-05-22T19:49:36Z</time>
      </trkpt>
      <trkpt lat="-17.54753" lon="-149.841">
        <ele>366.399536</ele>
        <time>2012-05-22T19:49:50Z</time>
      </trkpt>
      <trkpt lat="-17.54746" lon="-149.84103">
        <ele>363.996338</ele>
        <time>2012-05-22T19:50:02Z</time>
      </trkpt>
      <trkpt lat="-17.54745" lon="-149.84093">
        <ele>362.554321</ele>
        <time>2012-05-22T19:50:13Z</time>
      </trkpt>
      <trkpt lat="-17.5475" lon="-149.84089">
        <ele>362.07373</ele>
        <time>2012-05-22T19:50:20Z</time>
      </trkpt>
      <trkpt lat="-17.54747" lon="-149.84088">
        <ele>358.228394</ele>
        <time>2012-05-22T19:50:33Z</time>
      </trkpt>
      <trkpt lat="-17.5474" lon="-149.84095">
        <ele>357.26709</ele>
        <time>2012-05-22T19:50:41Z</time>
      </trkpt>
      <trkpt lat="-17.54741" lon="-149.84098">
        <ele>354.86377</ele>
        <time>2012-05-22T19:50:54Z</time>
      </trkpt>
      <trkpt lat="-17.54747" lon="-149.84093">
        <ele>352.460571</ele>
        <time>2012-05-22T19:51:04Z</time>
      </trkpt>
      <trkpt lat="-17.54745" lon="-149.84088">
        <ele>351.499146</ele>
        <time>2012-05-22T19:51:08Z</time>
      </trkpt>
      <trkpt lat="-17.54749" lon="-149.8408">
        <ele>349.576538</ele>
        <time>2012-05-22T19:51:20Z</time>
      </trkpt>
      <trkpt lat="-17.54746" lon="-149.84083">
        <ele>346.692627</ele>
        <time>2012-05-22T19:51:27Z</time>
      </trkpt>
      <trkpt lat="-17.54741" lon="-149.84086">
        <ele>346.212036</ele>
        <time>2012-05-22T19:51:30Z</time>
      </trkpt>
      <trkpt lat="-17.54737" lon="-149.84079">
        <ele>345.25061</ele>
        <time>2012-05-22T19:51:41Z</time>
      </trkpt>
      <trkpt lat="-17.54744" lon="-149.84069">
        <ele>342.366699</ele>
        <time>2012-05-22T19:51:55Z</time>
      </trkpt>
      <trkpt lat="-17.5474" lon="-149.84063">
        <ele>341.885986</ele>
        <time>2012-05-22T19:52:06Z</time>
      </trkpt>
      <trkpt lat="-17.5474" lon="-149.8406">
        <ele>340.924683</ele>
        <time>2012-05-22T19:52:10Z</time>
      </trkpt>
      <trkpt lat="-17.54741" lon="-149.84047">
        <ele>339.482666</ele>
        <time>2012-05-22T19:52:23Z</time>
      </trkpt>
      <trkpt lat="-17.54732" lon="-149.84035">
        <ele>337.560059</ele>
        <time>2012-05-22T19:52:40Z</time>
      </trkpt>
      <trkpt lat="-17.54735" lon="-149.84019">
        <ele>336.118164</ele>
        <time>2012-05-22T19:52:54Z</time>
      </trkpt>
      <trkpt lat="-17.54736" lon="-149.84015">
        <ele>335.637329</ele>
        <time>2012-05-22T19:52:57Z</time>
      </trkpt>
      <trkpt lat="-17.54737" lon="-149.84002">
        <ele>333.234131</ele>
        <time>2012-05-22T19:53:12Z</time>
      </trkpt>
      <trkpt lat="-17.54738" lon="-149.83997">
        <ele>332.272827</ele>
        <time>2012-05-22T19:53:17Z</time>
      </trkpt>
      <trkpt lat="-17.54743" lon="-149.83984">
        <ele>330.830933</ele>
        <time>2012-05-22T19:53:30Z</time>
      </trkpt>
      <trkpt lat="-17.54741" lon="-149.8398">
        <ele>329.388916</ele>
        <time>2012-05-22T19:53:45Z</time>
      </trkpt>
      <trkpt lat="-17.54736" lon="-149.83995">
        <ele>326.504883</ele>
        <time>2012-05-22T19:54:03Z</time>
      </trkpt>
      <trkpt lat="-17.54729" lon="-149.84004">
        <ele>325.062988</ele>
        <time>2012-05-22T19:54:17Z</time>
      </trkpt>
      <trkpt lat="-17.5473" lon="-149.83987">
        <ele>322.659668</ele>
        <time>2012-05-22T19:54:34Z</time>
      </trkpt>
      <trkpt lat="-17.54731" lon="-149.83985">
        <ele>320.256348</ele>
        <time>2012-05-22T19:54:37Z</time>
      </trkpt>
      <trkpt lat="-17.54735" lon="-149.83971">
        <ele>318.333618</ele>
        <time>2012-05-22T19:54:55Z</time>
      </trkpt>
      <trkpt lat="-17.54733" lon="-149.8396">
        <ele>315.449829</ele>
        <time>2012-05-22T19:55:20Z</time>
      </trkpt>
      <trkpt lat="-17.54729" lon="-149.83966">
        <ele>314.488403</ele>
        <time>2012-05-22T19:55:28Z</time>
      </trkpt>
      <trkpt lat="-17.54724" lon="-149.83979">
        <ele>314.488403</ele>
        <time>2012-05-22T19:55:40Z</time>
      </trkpt>
      <trkpt lat="-17.54722" lon="-149.8398">
        <ele>312.565796</ele>
        <time>2012-05-22T19:55:54Z</time>
      </trkpt>
      <trkpt lat="-17.54724" lon="-149.8397">
        <ele>312.085205</ele>
        <time>2012-05-22T19:56:03Z</time>
      </trkpt>
      <trkpt lat="-17.54729" lon="-149.83964">
        <ele>310.643066</ele>
        <time>2012-05-22T19:56:09Z</time>
      </trkpt>
      <trkpt lat="-17.54737" lon="-149.83951">
        <ele>309.201172</ele>
        <time>2012-05-22T19:56:21Z</time>
      </trkpt>
      <trkpt lat="-17.5474" lon="-149.8394">
        <ele>308.239868</ele>
        <time>2012-05-22T19:56:33Z</time>
      </trkpt>
      <trkpt lat="-17.54743" lon="-149.83932">
        <ele>304.875244</ele>
        <time>2012-05-22T19:56:41Z</time>
      </trkpt>
      <trkpt lat="-17.54743" lon="-149.83931">
        <ele>304.394653</ele>
        <time>2012-05-22T19:56:42Z</time>
      </trkpt>
      <trkpt lat="-17.54731" lon="-149.83941">
        <ele>301.51062</ele>
        <time>2012-05-22T19:57:05Z</time>
      </trkpt>
      <trkpt lat="-17.54719" lon="-149.83954">
        <ele>298.146118</ele>
        <time>2012-05-22T19:57:23Z</time>
      </trkpt>
      <trkpt lat="-17.54703" lon="-149.83956">
        <ele>295.261963</ele>
        <time>2012-05-22T19:57:54Z</time>
      </trkpt>
      <trkpt lat="-17.54691" lon="-149.83956">
        <ele>294.300781</ele>
        <time>2012-05-22T19:58:11Z</time>
      </trkpt>
      <trkpt lat="-17.54687" lon="-149.83974">
        <ele>290.936157</ele>
        <time>2012-05-22T19:58:35Z</time>
      </trkpt>
      <trkpt lat="-17.54681" lon="-149.83982">
        <ele>289.974854</ele>
        <time>2012-05-22T19:58:47Z</time>
      </trkpt>
      <trkpt lat="-17.54676" lon="-149.83993">
        <ele>288.532959</ele>
        <time>2012-05-22T19:59:00Z</time>
      </trkpt>
      <trkpt lat="-17.54666" lon="-149.83999">
        <ele>288.532959</ele>
        <time>2012-05-22T19:59:16Z</time>
      </trkpt>
      <trkpt lat="-17.54661" lon="-149.84007">
        <ele>286.610229</ele>
        <time>2012-05-22T19:59:28Z</time>
      </trkpt>
      <trkpt lat="-17.54653" lon="-149.84013">
        <ele>285.168213</ele>
        <time>2012-05-22T19:59:43Z</time>
      </trkpt>
      <trkpt lat="-17.54646" lon="-149.84012">
        <ele>282.765015</ele>
        <time>2012-05-22T19:59:55Z</time>
      </trkpt>
      <trkpt lat="-17.54639" lon="-149.84016">
        <ele>280.361694</ele>
        <time>2012-05-22T20:00:08Z</time>
      </trkpt>
      <trkpt lat="-17.54631" lon="-149.84017">
        <ele>276.99707</ele>
        <time>2012-05-22T20:00:22Z</time>
      </trkpt>
      <trkpt lat="-17.54617" lon="-149.84006">
        <ele>274.59375</ele>
        <time>2012-05-22T20:00:37Z</time>
      </trkpt>
      <trkpt lat="-17.54612" lon="-149.84002">
        <ele>274.113037</ele>
        <time>2012-05-22T20:00:50Z</time>
      </trkpt>
      <trkpt lat="-17.54604" lon="-149.83993">
        <ele>272.671143</ele>
        <time>2012-05-22T20:01:03Z</time>
      </trkpt>
      <trkpt lat="-17.54603" lon="-149.83989">
        <ele>271.229126</ele>
        <time>2012-05-22T20:01:08Z</time>
      </trkpt>
      <trkpt lat="-17.54602" lon="-149.8398">
        <ele>269.787109</ele>
        <time>2012-05-22T20:01:21Z</time>
      </trkpt>
      <trkpt lat="-17.54591" lon="-149.83976">
        <ele>267.383911</ele>
        <time>2012-05-22T20:01:36Z</time>
      </trkpt>
      <trkpt lat="-17.54584" lon="-149.83972">
        <ele>265.461304</ele>
        <time>2012-05-22T20:01:49Z</time>
      </trkpt>
      <trkpt lat="-17.54573" lon="-149.83966">
        <ele>264.980591</ele>
        <time>2012-05-22T20:02:01Z</time>
      </trkpt>
      <trkpt lat="-17.54556" lon="-149.83978">
        <ele>262.096558</ele>
        <time>2012-05-22T20:02:24Z</time>
      </trkpt>
      <trkpt lat="-17.54546" lon="-149.83976">
        <ele>262.096558</ele>
        <time>2012-05-22T20:02:36Z</time>
      </trkpt>
      <trkpt lat="-17.54535" lon="-149.83978">
        <ele>261.135254</ele>
        <time>2012-05-22T20:02:48Z</time>
      </trkpt>
      <trkpt lat="-17.54527" lon="-149.83979">
        <ele>257.770752</ele>
        <time>2012-05-22T20:02:55Z</time>
      </trkpt>
      <trkpt lat="-17.54516" lon="-149.83974">
        <ele>256.328735</ele>
        <time>2012-05-22T20:03:10Z</time>
      </trkpt>
      <trkpt lat="-17.5451" lon="-149.83977">
        <ele>253.925415</ele>
        <time>2012-05-22T20:03:21Z</time>
      </trkpt>
      <trkpt lat="-17.54509" lon="-149.83989">
        <ele>254.886597</ele>
        <time>2012-05-22T20:03:35Z</time>
      </trkpt>
      <trkpt lat="-17.54514" lon="-149.84003">
        <ele>253.925415</ele>
        <time>2012-05-22T20:03:47Z</time>
      </trkpt>
      <trkpt lat="-17.54513" lon="-149.84008">
        <ele>252.483398</ele>
        <time>2012-05-22T20:03:52Z</time>
      </trkpt>
      <trkpt lat="-17.54517" lon="-149.84022">
        <ele>252.002808</ele>
        <time>2012-05-22T20:04:05Z</time>
      </trkpt>
      <trkpt lat="-17.54518" lon="-149.84034">
        <ele>249.599487</ele>
        <time>2012-05-22T20:04:20Z</time>
      </trkpt>
      <trkpt lat="-17.54524" lon="-149.84045">
        <ele>249.599487</ele>
        <time>2012-05-22T20:04:45Z</time>
      </trkpt>
      <trkpt lat="-17.54523" lon="-149.84047">
        <ele>246.715454</ele>
        <time>2012-05-22T20:04:58Z</time>
      </trkpt>
      <trkpt lat="-17.54516" lon="-149.84051">
        <ele>243.831543</ele>
        <time>2012-05-22T20:05:20Z</time>
      </trkpt>
      <trkpt lat="-17.54507" lon="-149.84043">
        <ele>242.389648</ele>
        <time>2012-05-22T20:05:32Z</time>
      </trkpt>
      <trkpt lat="-17.54504" lon="-149.84043">
        <ele>239.986206</ele>
        <time>2012-05-22T20:05:47Z</time>
      </trkpt>
      <trkpt lat="-17.54501" lon="-149.84046">
        <ele>239.505493</ele>
        <time>2012-05-22T20:06:02Z</time>
      </trkpt>
      <trkpt lat="-17.54508" lon="-149.84065">
        <ele>236.140991</ele>
        <time>2012-05-22T20:06:20Z</time>
      </trkpt>
      <trkpt lat="-17.545" lon="-149.8407">
        <ele>234.218384</ele>
        <time>2012-05-22T20:06:43Z</time>
      </trkpt>
      <trkpt lat="-17.54503" lon="-149.84075">
        <ele>233.25708</ele>
        <time>2012-05-22T20:06:52Z</time>
      </trkpt>
      <trkpt lat="-17.54497" lon="-149.84078">
        <ele>231.814941</ele>
        <time>2012-05-22T20:07:05Z</time>
      </trkpt>
      <trkpt lat="-17.54503" lon="-149.84079">
        <ele>232.295776</ele>
        <time>2012-05-22T20:07:19Z</time>
      </trkpt>
      <trkpt lat="-17.54501" lon="-149.84079">
        <ele>232.295776</ele>
        <time>2012-05-22T20:07:53Z</time>
      </trkpt>
      <trkpt lat="-17.5451" lon="-149.84074">
        <ele>233.25708</ele>
        <time>2012-05-22T20:08:46Z</time>
      </trkpt>
      <trkpt lat="-17.54508" lon="-149.84087">
        <ele>233.25708</ele>
        <time>2012-05-22T20:09:01Z</time>
      </trkpt>
      <trkpt lat="-17.54513" lon="-149.84098">
        <ele>233.737671</ele>
        <time>2012-05-22T20:09:18Z</time>
      </trkpt>
      <trkpt lat="-17.54506" lon="-149.84094">
        <ele>233.737671</ele>
        <time>2012-05-22T20:09:32Z</time>
      </trkpt>
      <trkpt lat="-17.54499" lon="-149.84101">
        <ele>233.737671</ele>
        <time>2012-05-22T20:09:47Z</time>
      </trkpt>
      <trkpt lat="-17.5448" lon="-149.84103">
        <ele>235.179688</ele>
        <time>2012-05-22T20:10:15Z</time>
      </trkpt>
      <trkpt lat="-17.54477" lon="-149.84101">
        <ele>232.776489</ele>
        <time>2012-05-22T20:10:30Z</time>
      </trkpt>
      <trkpt lat="-17.54477" lon="-149.841">
        <ele>232.776489</ele>
        <time>2012-05-22T20:10:31Z</time>
      </trkpt>
      <trkpt lat="-17.54478" lon="-149.84115">
        <ele>234.699097</ele>
        <time>2012-05-22T20:10:53Z</time>
      </trkpt>
      <trkpt lat="-17.54468" lon="-149.84117">
        <ele>234.699097</ele>
        <time>2012-05-22T20:11:04Z</time>
      </trkpt>
      <trkpt lat="-17.54461" lon="-149.8412">
        <ele>234.218384</ele>
        <time>2012-05-22T20:11:17Z</time>
      </trkpt>
      <trkpt lat="-17.54456" lon="-149.84121">
        <ele>234.218384</ele>
        <time>2012-05-22T20:11:40Z</time>
      </trkpt>
      <trkpt lat="-17.54434" lon="-149.84132">
        <ele>234.218384</ele>
        <time>2012-05-22T20:12:05Z</time>
      </trkpt>
      <trkpt lat="-17.54421" lon="-149.84133">
        <ele>232.776489</ele>
        <time>2012-05-22T20:12:19Z</time>
      </trkpt>
      <trkpt lat="-17.54416" lon="-149.8413">
        <ele>231.334351</ele>
        <time>2012-05-22T20:12:37Z</time>
      </trkpt>
      <trkpt lat="-17.54408" lon="-149.84134">
        <ele>230.373047</ele>
        <time>2012-05-22T20:12:52Z</time>
      </trkpt>
      <trkpt lat="-17.54399" lon="-149.84132">
        <ele>228.450439</ele>
        <time>2012-05-22T20:13:06Z</time>
      </trkpt>
      <trkpt lat="-17.54384" lon="-149.8413">
        <ele>227.489136</ele>
        <time>2012-05-22T20:13:17Z</time>
      </trkpt>
      <trkpt lat="-17.54377" lon="-149.84133">
        <ele>226.527832</ele>
        <time>2012-05-22T20:13:27Z</time>
      </trkpt>
      <trkpt lat="-17.5437" lon="-149.8415">
        <ele>223.163208</ele>
        <time>2012-05-22T20:13:47Z</time>
      </trkpt>
      <trkpt lat="-17.54365" lon="-149.84143">
        <ele>221.240601</ele>
        <time>2012-05-22T20:14:01Z</time>
      </trkpt>
      <trkpt lat="-17.54367" lon="-149.84133">
        <ele>218.83728</ele>
        <time>2012-05-22T20:14:23Z</time>
      </trkpt>
      <trkpt lat="-17.54365" lon="-149.84128">
        <ele>215.953247</ele>
        <time>2012-05-22T20:14:37Z</time>
      </trkpt>
      <trkpt lat="-17.54357" lon="-149.84133">
        <ele>214.991943</ele>
        <time>2012-05-22T20:14:53Z</time>
      </trkpt>
      <trkpt lat="-17.54347" lon="-149.84132">
        <ele>213.069336</ele>
        <time>2012-05-22T20:15:09Z</time>
      </trkpt>
      <trkpt lat="-17.54342" lon="-149.84125">
        <ele>212.108032</ele>
        <time>2012-05-22T20:15:22Z</time>
      </trkpt>
      <trkpt lat="-17.5434" lon="-149.84128">
        <ele>212.108032</ele>
        <time>2012-05-22T20:15:34Z</time>
      </trkpt>
      <trkpt lat="-17.54333" lon="-149.84121">
        <ele>210.666016</ele>
        <time>2012-05-22T20:15:53Z</time>
      </trkpt>
      <trkpt lat="-17.54322" lon="-149.84122">
        <ele>210.185425</ele>
        <time>2012-05-22T20:16:06Z</time>
      </trkpt>
      <trkpt lat="-17.54313" lon="-149.84121">
        <ele>209.224121</ele>
        <time>2012-05-22T20:16:19Z</time>
      </trkpt>
      <trkpt lat="-17.54307" lon="-149.84112">
        <ele>207.301392</ele>
        <time>2012-05-22T20:16:35Z</time>
      </trkpt>
      <trkpt lat="-17.54303" lon="-149.84103">
        <ele>205.378784</ele>
        <time>2012-05-22T20:16:51Z</time>
      </trkpt>
      <trkpt lat="-17.5429" lon="-149.84096">
        <ele>202.494873</ele>
        <time>2012-05-22T20:17:11Z</time>
      </trkpt>
      <trkpt lat="-17.54287" lon="-149.84093">
        <ele>201.533569</ele>
        <time>2012-05-22T20:17:26Z</time>
      </trkpt>
      <trkpt lat="-17.54281" lon="-149.84084">
        <ele>200.091675</ele>
        <time>2012-05-22T20:17:38Z</time>
      </trkpt>
      <trkpt lat="-17.5428" lon="-149.8408">
        <ele>199.130127</ele>
        <time>2012-05-22T20:17:45Z</time>
      </trkpt>
      <trkpt lat="-17.54269" lon="-149.84073">
        <ele>197.20752</ele>
        <time>2012-05-22T20:17:59Z</time>
      </trkpt>
      <trkpt lat="-17.54263" lon="-149.84078">
        <ele>196.246338</ele>
        <time>2012-05-22T20:18:11Z</time>
      </trkpt>
      <trkpt lat="-17.54259" lon="-149.84084">
        <ele>194.804321</ele>
        <time>2012-05-22T20:18:24Z</time>
      </trkpt>
      <trkpt lat="-17.54252" lon="-149.84089">
        <ele>191.920288</ele>
        <time>2012-05-22T20:18:37Z</time>
      </trkpt>
      <trkpt lat="-17.54258" lon="-149.84098">
        <ele>188.555786</ele>
        <time>2012-05-22T20:19:01Z</time>
      </trkpt>
      <trkpt lat="-17.5426" lon="-149.84111">
        <ele>188.555786</ele>
        <time>2012-05-22T20:19:18Z</time>
      </trkpt>
      <trkpt lat="-17.54251" lon="-149.84129">
        <ele>190.478394</ele>
        <time>2012-05-22T20:19:47Z</time>
      </trkpt>
      <trkpt lat="-17.54244" lon="-149.84133">
        <ele>191.439575</ele>
        <time>2012-05-22T20:20:01Z</time>
      </trkpt>
      <trkpt lat="-17.5423" lon="-149.84135">
        <ele>192.881714</ele>
        <time>2012-05-22T20:20:15Z</time>
      </trkpt>
      <trkpt lat="-17.54225" lon="-149.84135">
        <ele>193.362305</ele>
        <time>2012-05-22T20:20:28Z</time>
      </trkpt>
      <trkpt lat="-17.54218" lon="-149.84143">
        <ele>195.284912</ele>
        <time>2012-05-22T20:20:41Z</time>
      </trkpt>
      <trkpt lat="-17.54208" lon="-149.84144">
        <ele>197.688232</ele>
        <time>2012-05-22T20:20:56Z</time>
      </trkpt>
      <trkpt lat="-17.54201" lon="-149.84145">
        <ele>197.20752</ele>
        <time>2012-05-22T20:21:10Z</time>
      </trkpt>
      <trkpt lat="-17.54195" lon="-149.84152">
        <ele>198.649536</ele>
        <time>2012-05-22T20:21:24Z</time>
      </trkpt>
      <trkpt lat="-17.54191" lon="-149.84154">
        <ele>201.052856</ele>
        <time>2012-05-22T20:21:37Z</time>
      </trkpt>
      <trkpt lat="-17.54175" lon="-149.84158">
        <ele>202.014282</ele>
        <time>2012-05-22T20:21:53Z</time>
      </trkpt>
      <trkpt lat="-17.54164" lon="-149.84165">
        <ele>201.052856</ele>
        <time>2012-05-22T20:22:07Z</time>
      </trkpt>
      <trkpt lat="-17.54158" lon="-149.84169">
        <ele>200.572266</ele>
        <time>2012-05-22T20:22:16Z</time>
      </trkpt>
      <trkpt lat="-17.5415" lon="-149.84177">
        <ele>199.130127</ele>
        <time>2012-05-22T20:22:31Z</time>
      </trkpt>
      <trkpt lat="-17.54144" lon="-149.84187">
        <ele>196.726929</ele>
        <time>2012-05-22T20:22:45Z</time>
      </trkpt>
      <trkpt lat="-17.54138" lon="-149.84195">
        <ele>196.246338</ele>
        <time>2012-05-22T20:23:00Z</time>
      </trkpt>
      <trkpt lat="-17.54125" lon="-149.84199">
        <ele>194.804321</ele>
        <time>2012-05-22T20:23:16Z</time>
      </trkpt>
      <trkpt lat="-17.54109" lon="-149.84191">
        <ele>193.362305</ele>
        <time>2012-05-22T20:23:31Z</time>
      </trkpt>
      <trkpt lat="-17.54104" lon="-149.84196">
        <ele>191.439575</ele>
        <time>2012-05-22T20:23:45Z</time>
      </trkpt>
      <trkpt lat="-17.54099" lon="-149.84193">
        <ele>192.401123</ele>
        <time>2012-05-22T20:24:01Z</time>
      </trkpt>
      <trkpt lat="-17.54104" lon="-149.84191">
        <ele>192.881714</ele>
        <time>2012-05-22T20:24:31Z</time>
      </trkpt>
      <trkpt lat="-17.54109" lon="-149.84194">
        <ele>192.881714</ele>
        <time>2012-05-22T20:25:02Z</time>
      </trkpt>
      <trkpt lat="-17.54111" lon="-149.8419">
        <ele>193.362305</ele>
        <time>2012-05-22T20:25:53Z</time>
      </trkpt>
      <trkpt lat="-17.54106" lon="-149.84192">
        <ele>192.401123</ele>
        <time>2012-05-22T20:26:23Z</time>
      </trkpt>
      <trkpt lat="-17.54103" lon="-149.84191">
        <ele>192.881714</ele>
        <time>2012-05-22T20:26:59Z</time>
      </trkpt>
      <trkpt lat="-17.54096" lon="-149.842">
        <ele>191.920288</ele>
        <time>2012-05-22T20:27:11Z</time>
      </trkpt>
      <trkpt lat="-17.54085" lon="-149.84208">
        <ele>189.997681</ele>
        <time>2012-05-22T20:27:25Z</time>
      </trkpt>
      <trkpt lat="-17.54078" lon="-149.84214">
        <ele>189.516968</ele>
        <time>2012-05-22T20:27:39Z</time>
      </trkpt>
      <trkpt lat="-17.54069" lon="-149.84224">
        <ele>190.478394</ele>
        <time>2012-05-22T20:27:51Z</time>
      </trkpt>
      <trkpt lat="-17.54063" lon="-149.84233">
        <ele>191.920288</ele>
        <time>2012-05-22T20:28:00Z</time>
      </trkpt>
      <trkpt lat="-17.54057" lon="-149.84246">
        <ele>193.362305</ele>
        <time>2012-05-22T20:28:14Z</time>
      </trkpt>
      <trkpt lat="-17.54049" lon="-149.84254">
        <ele>193.843018</ele>
        <time>2012-05-22T20:28:27Z</time>
      </trkpt>
      <trkpt lat="-17.54042" lon="-149.84262">
        <ele>193.362305</ele>
        <time>2012-05-22T20:28:38Z</time>
      </trkpt>
      <trkpt lat="-17.5403" lon="-149.8427">
        <ele>192.401123</ele>
        <time>2012-05-22T20:28:54Z</time>
      </trkpt>
      <trkpt lat="-17.54024" lon="-149.84278">
        <ele>191.439575</ele>
        <time>2012-05-22T20:29:06Z</time>
      </trkpt>
      <trkpt lat="-17.54019" lon="-149.8429">
        <ele>191.920288</ele>
        <time>2012-05-22T20:29:20Z</time>
      </trkpt>
      <trkpt lat="-17.54013" lon="-149.84304">
        <ele>190.958984</ele>
        <time>2012-05-22T20:29:37Z</time>
      </trkpt>
      <trkpt lat="-17.54003" lon="-149.84308">
        <ele>190.478394</ele>
        <time>2012-05-22T20:29:50Z</time>
      </trkpt>
      <trkpt lat="-17.53988" lon="-149.84311">
        <ele>189.997681</ele>
        <time>2012-05-22T20:30:04Z</time>
      </trkpt>
      <trkpt lat="-17.53976" lon="-149.84314">
        <ele>186.633179</ele>
        <time>2012-05-22T20:30:23Z</time>
      </trkpt>
      <trkpt lat="-17.53972" lon="-149.8432">
        <ele>186.152466</ele>
        <time>2012-05-22T20:30:35Z</time>
      </trkpt>
      <trkpt lat="-17.5396" lon="-149.84324">
        <ele>186.633179</ele>
        <time>2012-05-22T20:30:49Z</time>
      </trkpt>
      <trkpt lat="-17.53946" lon="-149.84325">
        <ele>184.229858</ele>
        <time>2012-05-22T20:31:02Z</time>
      </trkpt>
      <trkpt lat="-17.5393" lon="-149.84327">
        <ele>182.307129</ele>
        <time>2012-05-22T20:31:20Z</time>
      </trkpt>
      <trkpt lat="-17.5392" lon="-149.84325">
        <ele>180.865234</ele>
        <time>2012-05-22T20:31:38Z</time>
      </trkpt>
      <trkpt lat="-17.53913" lon="-149.84327">
        <ele>179.903809</ele>
        <time>2012-05-22T20:31:53Z</time>
      </trkpt>
      <trkpt lat="-17.53905" lon="-149.84328">
        <ele>177.50061</ele>
        <time>2012-05-22T20:32:09Z</time>
      </trkpt>
      <trkpt lat="-17.53895" lon="-149.84321">
        <ele>174.135864</ele>
        <time>2012-05-22T20:32:28Z</time>
      </trkpt>
      <trkpt lat="-17.53891" lon="-149.84328">
        <ele>173.655273</ele>
        <time>2012-05-22T20:32:42Z</time>
      </trkpt>
      <trkpt lat="-17.5388" lon="-149.84332">
        <ele>174.135864</ele>
        <time>2012-05-22T20:32:55Z</time>
      </trkpt>
      <trkpt lat="-17.53867" lon="-149.84329">
        <ele>172.213257</ele>
        <time>2012-05-22T20:33:10Z</time>
      </trkpt>
      <trkpt lat="-17.53857" lon="-149.84327">
        <ele>172.69397</ele>
        <time>2012-05-22T20:33:24Z</time>
      </trkpt>
      <trkpt lat="-17.53849" lon="-149.84319">
        <ele>169.810059</ele>
        <time>2012-05-22T20:33:41Z</time>
      </trkpt>
      <trkpt lat="-17.53838" lon="-149.84311">
        <ele>167.887329</ele>
        <time>2012-05-22T20:33:53Z</time>
      </trkpt>
      <trkpt lat="-17.53825" lon="-149.84308">
        <ele>167.406738</ele>
        <time>2012-05-22T20:34:07Z</time>
      </trkpt>
      <trkpt lat="-17.53814" lon="-149.84305">
        <ele>167.406738</ele>
        <time>2012-05-22T20:34:22Z</time>
      </trkpt>
      <trkpt lat="-17.53808" lon="-149.84306">
        <ele>164.522705</ele>
        <time>2012-05-22T20:34:37Z</time>
      </trkpt>
      <trkpt lat="-17.53797" lon="-149.84299">
        <ele>163.561523</ele>
        <time>2012-05-22T20:34:50Z</time>
      </trkpt>
      <trkpt lat="-17.53777" lon="-149.84287">
        <ele>163.080811</ele>
        <time>2012-05-22T20:35:06Z</time>
      </trkpt>
      <trkpt lat="-17.53767" lon="-149.84285">
        <ele>164.042114</ele>
        <time>2012-05-22T20:35:22Z</time>
      </trkpt>
      <trkpt lat="-17.5376" lon="-149.84288">
        <ele>164.042114</ele>
        <time>2012-05-22T20:35:36Z</time>
      </trkpt>
      <trkpt lat="-17.53752" lon="-149.84293">
        <ele>164.522705</ele>
        <time>2012-05-22T20:35:49Z</time>
      </trkpt>
      <trkpt lat="-17.53737" lon="-149.84302">
        <ele>164.042114</ele>
        <time>2012-05-22T20:36:05Z</time>
      </trkpt>
      <trkpt lat="-17.53725" lon="-149.84306">
        <ele>163.080811</ele>
        <time>2012-05-22T20:36:19Z</time>
      </trkpt>
      <trkpt lat="-17.53709" lon="-149.84309">
        <ele>162.600098</ele>
        <time>2012-05-22T20:36:35Z</time>
      </trkpt>
      <trkpt lat="-17.53696" lon="-149.84316">
        <ele>162.119507</ele>
        <time>2012-05-22T20:36:49Z</time>
      </trkpt>
      <trkpt lat="-17.53686" lon="-149.84319">
        <ele>159.716187</ele>
        <time>2012-05-22T20:37:03Z</time>
      </trkpt>
      <trkpt lat="-17.53688" lon="-149.84327">
        <ele>158.754761</ele>
        <time>2012-05-22T20:37:12Z</time>
      </trkpt>
      <trkpt lat="-17.53693" lon="-149.8434">
        <ele>156.351562</ele>
        <time>2012-05-22T20:37:27Z</time>
      </trkpt>
      <trkpt lat="-17.53686" lon="-149.84346">
        <ele>153.467651</ele>
        <time>2012-05-22T20:37:41Z</time>
      </trkpt>
      <trkpt lat="-17.53673" lon="-149.84354">
        <ele>150.583618</ele>
        <time>2012-05-22T20:38:00Z</time>
      </trkpt>
      <trkpt lat="-17.53661" lon="-149.84354">
        <ele>148.661011</ele>
        <time>2012-05-22T20:38:16Z</time>
      </trkpt>
      <trkpt lat="-17.53653" lon="-149.8435">
        <ele>146.738403</ele>
        <time>2012-05-22T20:38:26Z</time>
      </trkpt>
      <trkpt lat="-17.53645" lon="-149.84349">
        <ele>145.296387</ele>
        <time>2012-05-22T20:38:38Z</time>
      </trkpt>
      <trkpt lat="-17.53629" lon="-149.84348">
        <ele>142.893066</ele>
        <time>2012-05-22T20:38:53Z</time>
      </trkpt>
      <trkpt lat="-17.53629" lon="-149.84356">
        <ele>141.931763</ele>
        <time>2012-05-22T20:39:09Z</time>
      </trkpt>
      <trkpt lat="-17.53639" lon="-149.84361">
        <ele>140.970459</ele>
        <time>2012-05-22T20:39:21Z</time>
      </trkpt>
      <trkpt lat="-17.53652" lon="-149.84368">
        <ele>140.009155</ele>
        <time>2012-05-22T20:39:38Z</time>
      </trkpt>
      <trkpt lat="-17.53663" lon="-149.84382">
        <ele>139.047852</ele>
        <time>2012-05-22T20:39:52Z</time>
      </trkpt>
      <trkpt lat="-17.53652" lon="-149.84394">
        <ele>139.528442</ele>
        <time>2012-05-22T20:40:05Z</time>
      </trkpt>
      <trkpt lat="-17.53636" lon="-149.84397">
        <ele>139.047852</ele>
        <time>2012-05-22T20:40:17Z</time>
      </trkpt>
      <trkpt lat="-17.53632" lon="-149.84408">
        <ele>139.528442</ele>
        <time>2012-05-22T20:40:26Z</time>
      </trkpt>
      <trkpt lat="-17.53633" lon="-149.84417">
        <ele>139.528442</ele>
        <time>2012-05-22T20:40:38Z</time>
      </trkpt>
      <trkpt lat="-17.5364" lon="-149.84425">
        <ele>140.489868</ele>
        <time>2012-05-22T20:40:46Z</time>
      </trkpt>
      <trkpt lat="-17.53648" lon="-149.84448">
        <ele>141.45105</ele>
        <time>2012-05-22T20:41:03Z</time>
      </trkpt>
      <trkpt lat="-17.53645" lon="-149.84471">
        <ele>141.45105</ele>
        <time>2012-05-22T20:41:18Z</time>
      </trkpt>
      <trkpt lat="-17.53644" lon="-149.84472">
        <ele>140.970459</ele>
        <time>2012-05-22T20:41:19Z</time>
      </trkpt>
      <trkpt lat="-17.53638" lon="-149.84477">
        <ele>140.489868</ele>
        <time>2012-05-22T20:41:24Z</time>
      </trkpt>
      <trkpt lat="-17.53624" lon="-149.84488">
        <ele>140.009155</ele>
        <time>2012-05-22T20:41:39Z</time>
      </trkpt>
      <trkpt lat="-17.53618" lon="-149.84501">
        <ele>140.489868</ele>
        <time>2012-05-22T20:41:52Z</time>
      </trkpt>
      <trkpt lat="-17.53623" lon="-149.84513">
        <ele>140.970459</ele>
        <time>2012-05-22T20:42:05Z</time>
      </trkpt>
      <trkpt lat="-17.53628" lon="-149.84527">
        <ele>140.970459</ele>
        <time>2012-05-22T20:42:18Z</time>
      </trkpt>
      <trkpt lat="-17.53627" lon="-149.84537">
        <ele>140.970459</ele>
        <time>2012-05-22T20:42:26Z</time>
      </trkpt>
      <trkpt lat="-17.53628" lon="-149.84555">
        <ele>140.970459</ele>
        <time>2012-05-22T20:42:40Z</time>
      </trkpt>
      <trkpt lat="-17.53632" lon="-149.84565">
        <ele>140.970459</ele>
        <time>2012-05-22T20:42:52Z</time>
      </trkpt>
      <trkpt lat="-17.53629" lon="-149.8457">
        <ele>141.45105</ele>
        <time>2012-05-22T20:42:57Z</time>
      </trkpt>
      <trkpt lat="-17.5362" lon="-149.84581">
        <ele>141.45105</ele>
        <time>2012-05-22T20:43:11Z</time>
      </trkpt>
      <trkpt lat="-17.53618" lon="-149.84586">
        <ele>140.970459</ele>
        <time>2012-05-22T20:43:17Z</time>
      </trkpt>
      <trkpt lat="-17.53618" lon="-149.84602">
        <ele>141.45105</ele>
        <time>2012-05-22T20:43:31Z</time>
      </trkpt>
      <trkpt lat="-17.53616" lon="-149.84619">
        <ele>141.931763</ele>
        <time>2012-05-22T20:43:44Z</time>
      </trkpt>
      <trkpt lat="-17.53613" lon="-149.84623">
        <ele>143.85437</ele>
        <time>2012-05-22T20:44:03Z</time>
      </trkpt>
      <trkpt lat="-17.53606" lon="-149.84621">
        <ele>144.335205</ele>
        <time>2012-05-22T20:44:09Z</time>
      </trkpt>
      <trkpt lat="-17.53589" lon="-149.84614">
        <ele>143.85437</ele>
        <time>2012-05-22T20:44:23Z</time>
      </trkpt>
      <trkpt lat="-17.53587" lon="-149.84613">
        <ele>143.373657</ele>
        <time>2012-05-22T20:44:25Z</time>
      </trkpt>
      <trkpt lat="-17.53581" lon="-149.84598">
        <ele>141.931763</ele>
        <time>2012-05-22T20:44:40Z</time>
      </trkpt>
      <trkpt lat="-17.53573" lon="-149.84585">
        <ele>140.009155</ele>
        <time>2012-05-22T20:44:54Z</time>
      </trkpt>
      <trkpt lat="-17.53572" lon="-149.84585">
        <ele>139.528442</ele>
        <time>2012-05-22T20:44:55Z</time>
      </trkpt>
      <trkpt lat="-17.53562" lon="-149.84573">
        <ele>139.047852</ele>
        <time>2012-05-22T20:45:10Z</time>
      </trkpt>
      <trkpt lat="-17.53546" lon="-149.84562">
        <ele>137.605835</ele>
        <time>2012-05-22T20:45:26Z</time>
      </trkpt>
      <trkpt lat="-17.53544" lon="-149.8456">
        <ele>137.125244</ele>
        <time>2012-05-22T20:45:28Z</time>
      </trkpt>
      <trkpt lat="-17.53526" lon="-149.84543">
        <ele>136.644653</ele>
        <time>2012-05-22T20:45:45Z</time>
      </trkpt>
      <trkpt lat="-17.53507" lon="-149.84536">
        <ele>135.683105</ele>
        <time>2012-05-22T20:46:02Z</time>
      </trkpt>
      <trkpt lat="-17.53496" lon="-149.84553">
        <ele>136.16394</ele>
        <time>2012-05-22T20:46:18Z</time>
      </trkpt>
      <trkpt lat="-17.53495" lon="-149.84565">
        <ele>136.16394</ele>
        <time>2012-05-22T20:46:31Z</time>
      </trkpt>
      <trkpt lat="-17.53494" lon="-149.84572">
        <ele>135.683105</ele>
        <time>2012-05-22T20:46:35Z</time>
      </trkpt>
      <trkpt lat="-17.53493" lon="-149.84581">
        <ele>135.683105</ele>
        <time>2012-05-22T20:46:43Z</time>
      </trkpt>
      <trkpt lat="-17.53484" lon="-149.84593">
        <ele>134.721924</ele>
        <time>2012-05-22T20:46:56Z</time>
      </trkpt>
      <trkpt lat="-17.53465" lon="-149.84601">
        <ele>133.760498</ele>
        <time>2012-05-22T20:47:10Z</time>
      </trkpt>
      <trkpt lat="-17.5345" lon="-149.84611">
        <ele>133.760498</ele>
        <time>2012-05-22T20:47:24Z</time>
      </trkpt>
      <trkpt lat="-17.53427" lon="-149.84606">
        <ele>132.318604</ele>
        <time>2012-05-22T20:47:42Z</time>
      </trkpt>
      <trkpt lat="-17.53416" lon="-149.84608">
        <ele>131.837891</ele>
        <time>2012-05-22T20:47:56Z</time>
      </trkpt>
      <trkpt lat="-17.53418" lon="-149.84625">
        <ele>131.3573</ele>
        <time>2012-05-22T20:48:09Z</time>
      </trkpt>
      <trkpt lat="-17.53419" lon="-149.84631">
        <ele>131.3573</ele>
        <time>2012-05-22T20:48:12Z</time>
      </trkpt>
      <trkpt lat="-17.53424" lon="-149.84643">
        <ele>131.837891</ele>
        <time>2012-05-22T20:48:22Z</time>
      </trkpt>
      <trkpt lat="-17.53421" lon="-149.84664">
        <ele>131.837891</ele>
        <time>2012-05-22T20:48:38Z</time>
      </trkpt>
      <trkpt lat="-17.53416" lon="-149.84667">
        <ele>131.837891</ele>
        <time>2012-05-22T20:48:43Z</time>
      </trkpt>
      <trkpt lat="-17.534" lon="-149.84672">
        <ele>131.3573</ele>
        <time>2012-05-22T20:48:52Z</time>
      </trkpt>
      <trkpt lat="-17.53398" lon="-149.84676">
        <ele>130.395996</ele>
        <time>2012-05-22T20:48:57Z</time>
      </trkpt>
      <trkpt lat="-17.53391" lon="-149.8468">
        <ele>129.915283</ele>
        <time>2012-05-22T20:49:02Z</time>
      </trkpt>
      <trkpt lat="-17.53388" lon="-149.84699">
        <ele>129.434692</ele>
        <time>2012-05-22T20:49:15Z</time>
      </trkpt>
      <trkpt lat="-17.53385" lon="-149.84704">
        <ele>130.395996</ele>
        <time>2012-05-22T20:49:19Z</time>
      </trkpt>
      <trkpt lat="-17.53377" lon="-149.84711">
        <ele>129.434692</ele>
        <time>2012-05-22T20:49:27Z</time>
      </trkpt>
      <trkpt lat="-17.53371" lon="-149.84718">
        <ele>129.434692</ele>
        <time>2012-05-22T20:49:35Z</time>
      </trkpt>
      <trkpt lat="-17.53358" lon="-149.84732">
        <ele>128.954102</ele>
        <time>2012-05-22T20:49:50Z</time>
      </trkpt>
      <trkpt lat="-17.53349" lon="-149.84739">
        <ele>127.992554</ele>
        <time>2012-05-22T20:49:59Z</time>
      </trkpt>
      <trkpt lat="-17.53334" lon="-149.84752">
        <ele>127.992554</ele>
        <time>2012-05-22T20:50:13Z</time>
      </trkpt>
      <trkpt lat="-17.53328" lon="-149.84753">
        <ele>127.992554</ele>
        <time>2012-05-22T20:50:17Z</time>
      </trkpt>
      <trkpt lat="-17.53309" lon="-149.84754">
        <ele>127.992554</ele>
        <time>2012-05-22T20:50:30Z</time>
      </trkpt>
      <trkpt lat="-17.53304" lon="-149.84754">
        <ele>128.954102</ele>
        <time>2012-05-22T20:50:33Z</time>
      </trkpt>
      <trkpt lat="-17.53297" lon="-149.84759">
        <ele>129.434692</ele>
        <time>2012-05-22T20:50:42Z</time>
      </trkpt>
      <trkpt lat="-17.53285" lon="-149.84759">
        <ele>128.954102</ele>
        <time>2012-05-22T20:50:54Z</time>
      </trkpt>
      <trkpt lat="-17.53272" lon="-149.84759">
        <ele>128.954102</ele>
        <time>2012-05-22T20:51:02Z</time>
      </trkpt>
      <trkpt lat="-17.53258" lon="-149.84755">
        <ele>128.473389</ele>
        <time>2012-05-22T20:51:16Z</time>
      </trkpt>
      <trkpt lat="-17.53248" lon="-149.84743">
        <ele>127.511963</ele>
        <time>2012-05-22T20:51:29Z</time>
      </trkpt>
      <trkpt lat="-17.53238" lon="-149.84727">
        <ele>127.031372</ele>
        <time>2012-05-22T20:51:42Z</time>
      </trkpt>
      <trkpt lat="-17.53221" lon="-149.84717">
        <ele>127.031372</ele>
        <time>2012-05-22T20:51:56Z</time>
      </trkpt>
      <trkpt lat="-17.53204" lon="-149.84706">
        <ele>127.511963</ele>
        <time>2012-05-22T20:52:10Z</time>
      </trkpt>
      <trkpt lat="-17.53202" lon="-149.84704">
        <ele>126.069946</ele>
        <time>2012-05-22T20:52:12Z</time>
      </trkpt>
      <trkpt lat="-17.53183" lon="-149.84689">
        <ele>125.589355</ele>
        <time>2012-05-22T20:52:29Z</time>
      </trkpt>
      <trkpt lat="-17.53173" lon="-149.84666">
        <ele>124.147339</ele>
        <time>2012-05-22T20:52:46Z</time>
      </trkpt>
      <trkpt lat="-17.53169" lon="-149.84652">
        <ele>124.147339</ele>
        <time>2012-05-22T20:53:00Z</time>
      </trkpt>
      <trkpt lat="-17.53164" lon="-149.84639">
        <ele>123.666748</ele>
        <time>2012-05-22T20:53:12Z</time>
      </trkpt>
      <trkpt lat="-17.53154" lon="-149.84627">
        <ele>124.147339</ele>
        <time>2012-05-22T20:53:27Z</time>
      </trkpt>
      <trkpt lat="-17.53136" lon="-149.84623">
        <ele>123.186157</ele>
        <time>2012-05-22T20:53:43Z</time>
      </trkpt>
      <trkpt lat="-17.53119" lon="-149.84624">
        <ele>123.186157</ele>
        <time>2012-05-22T20:53:57Z</time>
      </trkpt>
      <trkpt lat="-17.53102" lon="-149.84632">
        <ele>122.224731</ele>
        <time>2012-05-22T20:54:10Z</time>
      </trkpt>
      <trkpt lat="-17.531" lon="-149.84634">
        <ele>121.744141</ele>
        <time>2012-05-22T20:54:13Z</time>
      </trkpt>
      <trkpt lat="-17.53089" lon="-149.84647">
        <ele>121.744141</ele>
        <time>2012-05-22T20:54:26Z</time>
      </trkpt>
      <trkpt lat="-17.53079" lon="-149.84654">
        <ele>121.744141</ele>
        <time>2012-05-22T20:54:35Z</time>
      </trkpt>
      <trkpt lat="-17.53064" lon="-149.84648">
        <ele>120.782837</ele>
        <time>2012-05-22T20:54:48Z</time>
      </trkpt>
      <trkpt lat="-17.5305" lon="-149.84633">
        <ele>117.898804</ele>
        <time>2012-05-22T20:55:04Z</time>
      </trkpt>
      <trkpt lat="-17.53037" lon="-149.8462">
        <ele>115.014893</ele>
        <time>2012-05-22T20:55:20Z</time>
      </trkpt>
      <trkpt lat="-17.53022" lon="-149.84607">
        <ele>112.611572</ele>
        <time>2012-05-22T20:55:34Z</time>
      </trkpt>
      <trkpt lat="-17.53015" lon="-149.84594">
        <ele>112.611572</ele>
        <time>2012-05-22T20:55:46Z</time>
      </trkpt>
      <trkpt lat="-17.53013" lon="-149.84582">
        <ele>111.169556</ele>
        <time>2012-05-22T20:55:57Z</time>
      </trkpt>
      <trkpt lat="-17.53007" lon="-149.84568">
        <ele>108.285645</ele>
        <time>2012-05-22T20:56:10Z</time>
      </trkpt>
      <trkpt lat="-17.52995" lon="-149.84557">
        <ele>105.882446</ele>
        <time>2012-05-22T20:56:23Z</time>
      </trkpt>
      <trkpt lat="-17.52977" lon="-149.8456">
        <ele>105.401733</ele>
        <time>2012-05-22T20:56:37Z</time>
      </trkpt>
      <trkpt lat="-17.5297" lon="-149.84569">
        <ele>103.959717</ele>
        <time>2012-05-22T20:56:51Z</time>
      </trkpt>
      <trkpt lat="-17.5297" lon="-149.84586">
        <ele>101.075684</ele>
        <time>2012-05-22T20:57:07Z</time>
      </trkpt>
      <trkpt lat="-17.52967" lon="-149.84598">
        <ele>100.114502</ele>
        <time>2012-05-22T20:57:17Z</time>
      </trkpt>
      <trkpt lat="-17.52961" lon="-149.84604">
        <ele>99.633789</ele>
        <time>2012-05-22T20:57:25Z</time>
      </trkpt>
      <trkpt lat="-17.52945" lon="-149.84606">
        <ele>99.153076</ele>
        <time>2012-05-22T20:57:39Z</time>
      </trkpt>
      <trkpt lat="-17.52936" lon="-149.84606">
        <ele>99.633789</ele>
        <time>2012-05-22T20:57:45Z</time>
      </trkpt>
      <trkpt lat="-17.52933" lon="-149.84606">
        <ele>99.153076</ele>
        <time>2012-05-22T20:57:47Z</time>
      </trkpt>
      <trkpt lat="-17.52916" lon="-149.84605">
        <ele>98.672485</ele>
        <time>2012-05-22T20:58:01Z</time>
      </trkpt>
      <trkpt lat="-17.52893" lon="-149.84604">
        <ele>97.711182</ele>
        <time>2012-05-22T20:58:18Z</time>
      </trkpt>
      <trkpt lat="-17.52873" lon="-149.84594">
        <ele>98.672485</ele>
        <time>2012-05-22T20:58:33Z</time>
      </trkpt>
      <trkpt lat="-17.52856" lon="-149.84579">
        <ele>98.191895</ele>
        <time>2012-05-22T20:58:49Z</time>
      </trkpt>
      <trkpt lat="-17.52844" lon="-149.84567">
        <ele>97.711182</ele>
        <time>2012-05-22T20:59:03Z</time>
      </trkpt>
      <trkpt lat="-17.52826" lon="-149.84554">
        <ele>97.711182</ele>
        <time>2012-05-22T20:59:20Z</time>
      </trkpt>
      <trkpt lat="-17.52811" lon="-149.84545">
        <ele>97.711182</ele>
        <time>2012-05-22T20:59:33Z</time>
      </trkpt>
      <trkpt lat="-17.52796" lon="-149.84542">
        <ele>97.230469</ele>
        <time>2012-05-22T20:59:46Z</time>
      </trkpt>
      <trkpt lat="-17.5279" lon="-149.84543">
        <ele>97.230469</ele>
        <time>2012-05-22T20:59:51Z</time>
      </trkpt>
      <trkpt lat="-17.5278" lon="-149.84544">
        <ele>96.269287</ele>
        <time>2012-05-22T21:00:00Z</time>
      </trkpt>
      <trkpt lat="-17.52757" lon="-149.84553">
        <ele>93.865845</ele>
        <time>2012-05-22T21:00:20Z</time>
      </trkpt>
      <trkpt lat="-17.52751" lon="-149.84554">
        <ele>93.865845</ele>
        <time>2012-05-22T21:00:24Z</time>
      </trkpt>
      <trkpt lat="-17.52749" lon="-149.84552">
        <ele>93.865845</ele>
        <time>2012-05-22T21:00:26Z</time>
      </trkpt>
      <trkpt lat="-17.5273" lon="-149.84553">
        <ele>91.943237</ele>
        <time>2012-05-22T21:00:42Z</time>
      </trkpt>
      <trkpt lat="-17.52711" lon="-149.84555">
        <ele>89.539917</ele>
        <time>2012-05-22T21:00:59Z</time>
      </trkpt>
      <trkpt lat="-17.527" lon="-149.84556">
        <ele>88.098022</ele>
        <time>2012-05-22T21:01:09Z</time>
      </trkpt>
      <trkpt lat="-17.5268" lon="-149.8456">
        <ele>86.656006</ele>
        <time>2012-05-22T21:01:25Z</time>
      </trkpt>
      <trkpt lat="-17.5266" lon="-149.84565">
        <ele>83.291382</ele>
        <time>2012-05-22T21:01:42Z</time>
      </trkpt>
      <trkpt lat="-17.52646" lon="-149.84574">
        <ele>81.849365</ele>
        <time>2012-05-22T21:01:56Z</time>
      </trkpt>
      <trkpt lat="-17.52629" lon="-149.84586">
        <ele>79.926636</ele>
        <time>2012-05-22T21:02:13Z</time>
      </trkpt>
      <trkpt lat="-17.52625" lon="-149.84587">
        <ele>79.446045</ele>
        <time>2012-05-22T21:02:17Z</time>
      </trkpt>
      <trkpt lat="-17.52619" lon="-149.84588">
        <ele>79.926636</ele>
        <time>2012-05-22T21:02:22Z</time>
      </trkpt>
      <trkpt lat="-17.52597" lon="-149.84588">
        <ele>78.004028</ele>
        <time>2012-05-22T21:02:41Z</time>
      </trkpt>
      <trkpt lat="-17.5259" lon="-149.84582">
        <ele>77.042847</ele>
        <time>2012-05-22T21:02:54Z</time>
      </trkpt>
      <trkpt lat="-17.52582" lon="-149.84572">
        <ele>75.60083</ele>
        <time>2012-05-22T21:03:08Z</time>
      </trkpt>
      <trkpt lat="-17.52575" lon="-149.84563">
        <ele>74.639526</ele>
        <time>2012-05-22T21:03:22Z</time>
      </trkpt>
      <trkpt lat="-17.52567" lon="-149.84552">
        <ele>73.197632</ele>
        <time>2012-05-22T21:03:34Z</time>
      </trkpt>
      <trkpt lat="-17.52566" lon="-149.8455">
        <ele>72.716919</ele>
        <time>2012-05-22T21:03:36Z</time>
      </trkpt>
      <trkpt lat="-17.52568" lon="-149.84537">
        <ele>71.755493</ele>
        <time>2012-05-22T21:03:44Z</time>
      </trkpt>
      <trkpt lat="-17.52572" lon="-149.84532">
        <ele>71.274902</ele>
        <time>2012-05-22T21:03:49Z</time>
      </trkpt>
      <trkpt lat="-17.52576" lon="-149.84515">
        <ele>71.755493</ele>
        <time>2012-05-22T21:04:02Z</time>
      </trkpt>
      <trkpt lat="-17.52582" lon="-149.84501">
        <ele>71.755493</ele>
        <time>2012-05-22T21:04:14Z</time>
      </trkpt>
      <trkpt lat="-17.52581" lon="-149.84498">
        <ele>70.794189</ele>
        <time>2012-05-22T21:04:17Z</time>
      </trkpt>
      <trkpt lat="-17.52582" lon="-149.8448">
        <ele>68.871582</ele>
        <time>2012-05-22T21:04:30Z</time>
      </trkpt>
      <trkpt lat="-17.52587" lon="-149.84471">
        <ele>69.352295</ele>
        <time>2012-05-22T21:04:37Z</time>
      </trkpt>
      <trkpt lat="-17.52597" lon="-149.84457">
        <ele>68.390869</ele>
        <time>2012-05-22T21:04:49Z</time>
      </trkpt>
      <trkpt lat="-17.52604" lon="-149.84446">
        <ele>67.429688</ele>
        <time>2012-05-22T21:04:57Z</time>
      </trkpt>
      <trkpt lat="-17.52611" lon="-149.84432">
        <ele>66.948975</ele>
        <time>2012-05-22T21:05:11Z</time>
      </trkpt>
      <trkpt lat="-17.52606" lon="-149.84419">
        <ele>65.50708</ele>
        <time>2012-05-22T21:05:23Z</time>
      </trkpt>
      <trkpt lat="-17.52605" lon="-149.84413">
        <ele>65.026367</ele>
        <time>2012-05-22T21:05:29Z</time>
      </trkpt>
      <trkpt lat="-17.52606" lon="-149.84406">
        <ele>65.026367</ele>
        <time>2012-05-22T21:05:34Z</time>
      </trkpt>
      <trkpt lat="-17.52618" lon="-149.84384">
        <ele>64.065063</ele>
        <time>2012-05-22T21:05:51Z</time>
      </trkpt>
      <trkpt lat="-17.52619" lon="-149.84383">
        <ele>64.065063</ele>
        <time>2012-05-22T21:05:52Z</time>
      </trkpt>
      <trkpt lat="-17.52642" lon="-149.84378">
        <ele>62.622925</ele>
        <time>2012-05-22T21:06:08Z</time>
      </trkpt>
      <trkpt lat="-17.52661" lon="-149.84376">
        <ele>61.18103</ele>
        <time>2012-05-22T21:06:23Z</time>
      </trkpt>
      <trkpt lat="-17.52679" lon="-149.84376">
        <ele>60.700317</ele>
        <time>2012-05-22T21:06:37Z</time>
      </trkpt>
      <trkpt lat="-17.527" lon="-149.84373">
        <ele>60.700317</ele>
        <time>2012-05-22T21:06:54Z</time>
      </trkpt>
      <trkpt lat="-17.52707" lon="-149.84362">
        <ele>60.219727</ele>
        <time>2012-05-22T21:07:09Z</time>
      </trkpt>
      <trkpt lat="-17.52707" lon="-149.8436">
        <ele>59.258423</ele>
        <time>2012-05-22T21:07:13Z</time>
      </trkpt>
      <trkpt lat="-17.52691" lon="-149.84351">
        <ele>57.816528</ele>
        <time>2012-05-22T21:07:28Z</time>
      </trkpt>
      <trkpt lat="-17.52676" lon="-149.84342">
        <ele>55.893799</ele>
        <time>2012-05-22T21:07:43Z</time>
      </trkpt>
      <trkpt lat="-17.52658" lon="-149.84334">
        <ele>54.932373</ele>
        <time>2012-05-22T21:07:58Z</time>
      </trkpt>
      <trkpt lat="-17.52651" lon="-149.84334">
        <ele>53.490479</ele>
        <time>2012-05-22T21:08:06Z</time>
      </trkpt>
      <trkpt lat="-17.52649" lon="-149.84334">
        <ele>53.490479</ele>
        <time>2012-05-22T21:08:08Z</time>
      </trkpt>
      <trkpt lat="-17.52629" lon="-149.84331">
        <ele>50.606567</ele>
        <time>2012-05-22T21:08:24Z</time>
      </trkpt>
      <trkpt lat="-17.52616" lon="-149.84326">
        <ele>49.164551</ele>
        <time>2012-05-22T21:08:36Z</time>
      </trkpt>
      <trkpt lat="-17.52599" lon="-149.84326">
        <ele>48.68396</ele>
        <time>2012-05-22T21:08:50Z</time>
      </trkpt>
      <trkpt lat="-17.52595" lon="-149.84324">
        <ele>47.241821</ele>
        <time>2012-05-22T21:08:54Z</time>
      </trkpt>
      <trkpt lat="-17.52579" lon="-149.84321">
        <ele>44.358032</ele>
        <time>2012-05-22T21:09:07Z</time>
      </trkpt>
      <trkpt lat="-17.52565" lon="-149.84311">
        <ele>43.396606</ele>
        <time>2012-05-22T21:09:20Z</time>
      </trkpt>
      <trkpt lat="-17.52546" lon="-149.84293">
        <ele>42.435425</ele>
        <time>2012-05-22T21:09:35Z</time>
      </trkpt>
      <trkpt lat="-17.52542" lon="-149.84279">
        <ele>41.473999</ele>
        <time>2012-05-22T21:09:49Z</time>
      </trkpt>
      <trkpt lat="-17.52538" lon="-149.84263">
        <ele>41.954712</ele>
        <time>2012-05-22T21:10:04Z</time>
      </trkpt>
      <trkpt lat="-17.52533" lon="-149.84259">
        <ele>40.993408</ele>
        <time>2012-05-22T21:10:12Z</time>
      </trkpt>
      <trkpt lat="-17.52522" lon="-149.84259">
        <ele>40.032104</ele>
        <time>2012-05-22T21:10:20Z</time>
      </trkpt>
      <trkpt lat="-17.52517" lon="-149.8426">
        <ele>39.55127</ele>
        <time>2012-05-22T21:10:24Z</time>
      </trkpt>
      <trkpt lat="-17.52511" lon="-149.84259">
        <ele>39.55127</ele>
        <time>2012-05-22T21:10:28Z</time>
      </trkpt>
      <trkpt lat="-17.52495" lon="-149.84262">
        <ele>37.628662</ele>
        <time>2012-05-22T21:10:41Z</time>
      </trkpt>
      <trkpt lat="-17.52477" lon="-149.84252">
        <ele>36.186768</ele>
        <time>2012-05-22T21:10:58Z</time>
      </trkpt>
      <trkpt lat="-17.52456" lon="-149.84246">
        <ele>33.783447</ele>
        <time>2012-05-22T21:11:15Z</time>
      </trkpt>
      <trkpt lat="-17.52431" lon="-149.84241">
        <ele>32.822266</ele>
        <time>2012-05-22T21:11:33Z</time>
      </trkpt>
      <trkpt lat="-17.52412" lon="-149.84225">
        <ele>32.341553</ele>
        <time>2012-05-22T21:11:53Z</time>
      </trkpt>
      <trkpt lat="-17.52409" lon="-149.84213">
        <ele>32.822266</ele>
        <time>2012-05-22T21:12:08Z</time>
      </trkpt>
      <trkpt lat="-17.52411" lon="-149.84212">
        <ele>32.822266</ele>
        <time>2012-05-22T21:12:16Z</time>
      </trkpt>
      <trkpt lat="-17.52425" lon="-149.84193">
        <ele>33.783447</ele>
        <time>2012-05-22T21:12:37Z</time>
      </trkpt>
      <trkpt lat="-17.52425" lon="-149.84192">
        <ele>33.783447</ele>
        <time>2012-05-22T21:12:38Z</time>
      </trkpt>
      <trkpt lat="-17.52428" lon="-149.8419">
        <ele>32.822266</ele>
        <time>2012-05-22T21:12:42Z</time>
      </trkpt>
      <trkpt lat="-17.52428" lon="-149.84187">
        <ele>32.822266</ele>
        <time>2012-05-22T21:12:58Z</time>
      </trkpt>
      <trkpt lat="-17.52427" lon="-149.84186">
        <ele>31.860718</ele>
        <time>2012-05-22T21:13:22Z</time>
      </trkpt>
      <trkpt lat="-17.52431" lon="-149.84187">
        <ele>32.822266</ele>
        <time>2012-05-22T21:14:23Z</time>
      </trkpt>
      <trkpt lat="-17.5243" lon="-149.84186">
        <ele>32.341553</ele>
        <time>2012-05-22T21:14:43Z</time>
      </trkpt>
      <trkpt lat="-17.52431" lon="-149.84182">
        <ele>32.341553</ele>
        <time>2012-05-22T21:14:58Z</time>
      </trkpt>
      <trkpt lat="-17.52431" lon="-149.8418">
        <ele>32.822266</ele>
        <time>2012-05-22T21:15:18Z</time>
      </trkpt>
      <trkpt lat="-17.52444" lon="-149.84171">
        <ele>31.860718</ele>
        <time>2012-05-22T21:15:34Z</time>
      </trkpt>
      <trkpt lat="-17.52457" lon="-149.84157">
        <ele>31.380127</ele>
        <time>2012-05-22T21:15:50Z</time>
      </trkpt>
      <trkpt lat="-17.52473" lon="-149.84142">
        <ele>31.860718</ele>
        <time>2012-05-22T21:16:07Z</time>
      </trkpt>
      <trkpt lat="-17.5249" lon="-149.84125">
        <ele>32.341553</ele>
        <time>2012-05-22T21:16:25Z</time>
      </trkpt>
      <trkpt lat="-17.52504" lon="-149.84109">
        <ele>32.822266</ele>
        <time>2012-05-22T21:16:42Z</time>
      </trkpt>
      <trkpt lat="-17.52513" lon="-149.84098">
        <ele>32.822266</ele>
        <time>2012-05-22T21:16:57Z</time>
      </trkpt>
      <trkpt lat="-17.5252" lon="-149.84089">
        <ele>32.822266</ele>
        <time>2012-05-22T21:17:12Z</time>
      </trkpt>
      <trkpt lat="-17.52525" lon="-149.84084">
        <ele>32.822266</ele>
        <time>2012-05-22T21:17:32Z</time>
      </trkpt>
      <trkpt lat="-17.52536" lon="-149.84072">
        <ele>32.822266</ele>
        <time>2012-05-22T21:17:48Z</time>
      </trkpt>
      <trkpt lat="-17.52542" lon="-149.84064">
        <ele>32.341553</ele>
        <time>2012-05-22T21:18:02Z</time>
      </trkpt>
      <trkpt lat="-17.52553" lon="-149.84051">
        <ele>33.783447</ele>
        <time>2012-05-22T21:18:18Z</time>
      </trkpt>
      <trkpt lat="-17.52553" lon="-149.84044">
        <ele>33.783447</ele>
        <time>2012-05-22T21:18:32Z</time>
      </trkpt>
      <trkpt lat="-17.52551" lon="-149.84047">
        <ele>33.783447</ele>
        <time>2012-05-22T21:18:45Z</time>
      </trkpt>
      <trkpt lat="-17.52542" lon="-149.84039">
        <ele>33.302856</ele>
        <time>2012-05-22T21:19:03Z</time>
      </trkpt>
      <trkpt lat="-17.52536" lon="-149.84032">
        <ele>33.783447</ele>
        <time>2012-05-22T21:19:17Z</time>
      </trkpt>
      <trkpt lat="-17.52536" lon="-149.84036">
        <ele>32.822266</ele>
        <time>2012-05-22T21:19:39Z</time>
      </trkpt>
      <trkpt lat="-17.52536" lon="-149.84037">
        <ele>33.302856</ele>
        <time>2012-05-22T21:19:40Z</time>
      </trkpt>
      <trkpt lat="-17.52539" lon="-149.84041">
        <ele>33.302856</ele>
        <time>2012-05-22T21:19:47Z</time>
      </trkpt>
      <trkpt lat="-17.52554" lon="-149.84042">
        <ele>33.302856</ele>
        <time>2012-05-22T21:20:02Z</time>
      </trkpt>
      <trkpt lat="-17.52556" lon="-149.8404">
        <ele>33.302856</ele>
        <time>2012-05-22T21:20:05Z</time>
      </trkpt>
      <trkpt lat="-17.52562" lon="-149.84035">
        <ele>34.26416</ele>
        <time>2012-05-22T21:20:12Z</time>
      </trkpt>
      <trkpt lat="-17.52563" lon="-149.84028">
        <ele>35.706055</ele>
        <time>2012-05-22T21:20:17Z</time>
      </trkpt>
      <trkpt lat="-17.52569" lon="-149.84014">
        <ele>36.186768</ele>
        <time>2012-05-22T21:20:32Z</time>
      </trkpt>
      <trkpt lat="-17.52568" lon="-149.84006">
        <ele>36.186768</ele>
        <time>2012-05-22T21:20:40Z</time>
      </trkpt>
      <trkpt lat="-17.5257" lon="-149.83999">
        <ele>38.109375</ele>
        <time>2012-05-22T21:20:49Z</time>
      </trkpt>
      <trkpt lat="-17.52573" lon="-149.83982">
        <ele>39.55127</ele>
        <time>2012-05-22T21:21:03Z</time>
      </trkpt>
      <trkpt lat="-17.52573" lon="-149.83981">
        <ele>39.55127</ele>
        <time>2012-05-22T21:21:04Z</time>
      </trkpt>
      <trkpt lat="-17.52577" lon="-149.83976">
        <ele>40.993408</ele>
        <time>2012-05-22T21:21:10Z</time>
      </trkpt>
      <trkpt lat="-17.52577" lon="-149.83956">
        <ele>41.473999</ele>
        <time>2012-05-22T21:21:24Z</time>
      </trkpt>
      <trkpt lat="-17.52578" lon="-149.83947">
        <ele>42.916016</ele>
        <time>2012-05-22T21:21:33Z</time>
      </trkpt>
      <trkpt lat="-17.52586" lon="-149.83927">
        <ele>44.358032</ele>
        <time>2012-05-22T21:21:49Z</time>
      </trkpt>
      <trkpt lat="-17.52591" lon="-149.83913">
        <ele>44.838623</ele>
        <time>2012-05-22T21:22:00Z</time>
      </trkpt>
      <trkpt lat="-17.52593" lon="-149.83898">
        <ele>45.799927</ele>
        <time>2012-05-22T21:22:16Z</time>
      </trkpt>
      <trkpt lat="-17.52597" lon="-149.83879">
        <ele>45.799927</ele>
        <time>2012-05-22T21:22:34Z</time>
      </trkpt>
      <trkpt lat="-17.52604" lon="-149.83871">
        <ele>45.799927</ele>
        <time>2012-05-22T21:22:50Z</time>
      </trkpt>
      <trkpt lat="-17.526" lon="-149.83869">
        <ele>46.76123</ele>
        <time>2012-05-22T21:22:55Z</time>
      </trkpt>
      <trkpt lat="-17.52592" lon="-149.83864">
        <ele>45.319214</ele>
        <time>2012-05-22T21:23:14Z</time>
      </trkpt>
      <trkpt lat="-17.526" lon="-149.83869">
        <ele>46.28064</ele>
        <time>2012-05-22T21:23:25Z</time>
      </trkpt>
      <trkpt lat="-17.52615" lon="-149.83863">
        <ele>46.76123</ele>
        <time>2012-05-22T21:23:39Z</time>
      </trkpt>
      <trkpt lat="-17.52624" lon="-149.83844">
        <ele>47.722534</ele>
        <time>2012-05-22T21:23:58Z</time>
      </trkpt>
      <trkpt lat="-17.52625" lon="-149.83826">
        <ele>47.722534</ele>
        <time>2012-05-22T21:24:17Z</time>
      </trkpt>
      <trkpt lat="-17.5262" lon="-149.83819">
        <ele>48.203369</ele>
        <time>2012-05-22T21:24:27Z</time>
      </trkpt>
      <trkpt lat="-17.52612" lon="-149.83805">
        <ele>49.164551</ele>
        <time>2012-05-22T21:24:43Z</time>
      </trkpt>
      <trkpt lat="-17.52614" lon="-149.83793">
        <ele>49.645264</ele>
        <time>2012-05-22T21:24:59Z</time>
      </trkpt>
      <trkpt lat="-17.52622" lon="-149.83784">
        <ele>49.164551</ele>
        <time>2012-05-22T21:25:13Z</time>
      </trkpt>
      <trkpt lat="-17.52625" lon="-149.83778">
        <ele>49.164551</ele>
        <time>2012-05-22T21:25:20Z</time>
      </trkpt>
      <trkpt lat="-17.52633" lon="-149.83762">
        <ele>50.606567</ele>
        <time>2012-05-22T21:25:33Z</time>
      </trkpt>
      <trkpt lat="-17.52645" lon="-149.83743">
        <ele>53.009766</ele>
        <time>2012-05-22T21:25:51Z</time>
      </trkpt>
      <trkpt lat="-17.52657" lon="-149.83733">
        <ele>54.451782</ele>
        <time>2012-05-22T21:26:05Z</time>
      </trkpt>
      <trkpt lat="-17.52674" lon="-149.83725">
        <ele>56.374512</ele>
        <time>2012-05-22T21:26:23Z</time>
      </trkpt>
      <trkpt lat="-17.52692" lon="-149.83728">
        <ele>56.855103</ele>
        <time>2012-05-22T21:26:40Z</time>
      </trkpt>
      <trkpt lat="-17.52701" lon="-149.83732">
        <ele>57.816528</ele>
        <time>2012-05-22T21:26:49Z</time>
      </trkpt>
      <trkpt lat="-17.52721" lon="-149.83741">
        <ele>57.335815</ele>
        <time>2012-05-22T21:27:08Z</time>
      </trkpt>
      <trkpt lat="-17.52736" lon="-149.83741">
        <ele>57.816528</ele>
        <time>2012-05-22T21:27:20Z</time>
      </trkpt>
      <trkpt lat="-17.52756" lon="-149.83742">
        <ele>57.816528</ele>
        <time>2012-05-22T21:27:37Z</time>
      </trkpt>
      <trkpt lat="-17.52769" lon="-149.83732">
        <ele>58.297119</ele>
        <time>2012-05-22T21:27:49Z</time>
      </trkpt>
      <trkpt lat="-17.52779" lon="-149.83721">
        <ele>59.258423</ele>
        <time>2012-05-22T21:28:00Z</time>
      </trkpt>
      <trkpt lat="-17.52783" lon="-149.83704">
        <ele>60.219727</ele>
        <time>2012-05-22T21:28:13Z</time>
      </trkpt>
      <trkpt lat="-17.52784" lon="-149.83689">
        <ele>61.661743</ele>
        <time>2012-05-22T21:28:25Z</time>
      </trkpt>
      <trkpt lat="-17.52788" lon="-149.83669">
        <ele>62.622925</ele>
        <time>2012-05-22T21:28:42Z</time>
      </trkpt>
      <trkpt lat="-17.52793" lon="-149.8366">
        <ele>63.103638</ele>
        <time>2012-05-22T21:28:49Z</time>
      </trkpt>
      <trkpt lat="-17.5281" lon="-149.83648">
        <ele>64.065063</ele>
        <time>2012-05-22T21:29:06Z</time>
      </trkpt>
      <trkpt lat="-17.52826" lon="-149.83641">
        <ele>64.065063</ele>
        <time>2012-05-22T21:29:21Z</time>
      </trkpt>
      <trkpt lat="-17.52836" lon="-149.83629">
        <ele>65.50708</ele>
        <time>2012-05-22T21:29:33Z</time>
      </trkpt>
      <trkpt lat="-17.5285" lon="-149.83619">
        <ele>66.468262</ele>
        <time>2012-05-22T21:29:48Z</time>
      </trkpt>
      <trkpt lat="-17.52863" lon="-149.83614">
        <ele>66.948975</ele>
        <time>2012-05-22T21:30:00Z</time>
      </trkpt>
      <trkpt lat="-17.52882" lon="-149.83604">
        <ele>67.910278</ele>
        <time>2012-05-22T21:30:17Z</time>
      </trkpt>
      <trkpt lat="-17.52898" lon="-149.83587">
        <ele>69.352295</ele>
        <time>2012-05-22T21:30:35Z</time>
      </trkpt>
      <trkpt lat="-17.52914" lon="-149.83575">
        <ele>71.274902</ele>
        <time>2012-05-22T21:30:52Z</time>
      </trkpt>
      <trkpt lat="-17.52933" lon="-149.83563">
        <ele>71.755493</ele>
        <time>2012-05-22T21:31:10Z</time>
      </trkpt>
      <trkpt lat="-17.52935" lon="-149.83561">
        <ele>72.236206</ele>
        <time>2012-05-22T21:31:12Z</time>
      </trkpt>
      <trkpt lat="-17.52939" lon="-149.83535">
        <ele>74.158813</ele>
        <time>2012-05-22T21:31:28Z</time>
      </trkpt>
      <trkpt lat="-17.5295" lon="-149.83514">
        <ele>75.60083</ele>
        <time>2012-05-22T21:31:46Z</time>
      </trkpt>
      <trkpt lat="-17.52969" lon="-149.83506">
        <ele>77.523438</ele>
        <time>2012-05-22T21:32:03Z</time>
      </trkpt>
      <trkpt lat="-17.52986" lon="-149.83505">
        <ele>78.004028</ele>
        <time>2012-05-22T21:32:18Z</time>
      </trkpt>
      <trkpt lat="-17.52995" lon="-149.83504">
        <ele>78.004028</ele>
        <time>2012-05-22T21:32:25Z</time>
      </trkpt>
      <trkpt lat="-17.52997" lon="-149.83505">
        <ele>78.484741</ele>
        <time>2012-05-22T21:32:27Z</time>
      </trkpt>
      <trkpt lat="-17.53006" lon="-149.83504">
        <ele>79.446045</ele>
        <time>2012-05-22T21:32:34Z</time>
      </trkpt>
      <trkpt lat="-17.53023" lon="-149.83501">
        <ele>80.407471</ele>
        <time>2012-05-22T21:32:48Z</time>
      </trkpt>
      <trkpt lat="-17.53043" lon="-149.83497">
        <ele>81.368774</ele>
        <time>2012-05-22T21:33:05Z</time>
      </trkpt>
      <trkpt lat="-17.53058" lon="-149.83491">
        <ele>82.810791</ele>
        <time>2012-05-22T21:33:18Z</time>
      </trkpt>
      <trkpt lat="-17.53074" lon="-149.83477">
        <ele>85.213989</ele>
        <time>2012-05-22T21:33:35Z</time>
      </trkpt>
      <trkpt lat="-17.53084" lon="-149.83463">
        <ele>87.136597</ele>
        <time>2012-05-22T21:33:46Z</time>
      </trkpt>
      <trkpt lat="-17.53095" lon="-149.83461">
        <ele>87.136597</ele>
        <time>2012-05-22T21:33:56Z</time>
      </trkpt>
      <trkpt lat="-17.53109" lon="-149.83466">
        <ele>87.136597</ele>
        <time>2012-05-22T21:34:11Z</time>
      </trkpt>
      <trkpt lat="-17.53122" lon="-149.83475">
        <ele>87.617188</ele>
        <time>2012-05-22T21:34:24Z</time>
      </trkpt>
      <trkpt lat="-17.53138" lon="-149.83483">
        <ele>89.059326</ele>
        <time>2012-05-22T21:34:40Z</time>
      </trkpt>
      <trkpt lat="-17.53161" lon="-149.83481">
        <ele>90.981934</ele>
        <time>2012-05-22T21:34:58Z</time>
      </trkpt>
      <trkpt lat="-17.53173" lon="-149.83479">
        <ele>91.462524</ele>
        <time>2012-05-22T21:35:08Z</time>
      </trkpt>
      <trkpt lat="-17.53177" lon="-149.83478">
        <ele>91.462524</ele>
        <time>2012-05-22T21:35:11Z</time>
      </trkpt>
      <trkpt lat="-17.53183" lon="-149.83475">
        <ele>91.943237</ele>
        <time>2012-05-22T21:35:16Z</time>
      </trkpt>
      <trkpt lat="-17.53199" lon="-149.83465">
        <ele>93.385132</ele>
        <time>2012-05-22T21:35:31Z</time>
      </trkpt>
      <trkpt lat="-17.53211" lon="-149.83449">
        <ele>94.827148</ele>
        <time>2012-05-22T21:35:47Z</time>
      </trkpt>
      <trkpt lat="-17.53223" lon="-149.83438">
        <ele>95.307739</ele>
        <time>2012-05-22T21:36:02Z</time>
      </trkpt>
      <trkpt lat="-17.53232" lon="-149.83433">
        <ele>96.269287</ele>
        <time>2012-05-22T21:36:10Z</time>
      </trkpt>
      <trkpt lat="-17.53251" lon="-149.83419">
        <ele>97.711182</ele>
        <time>2012-05-22T21:36:27Z</time>
      </trkpt>
      <trkpt lat="-17.53269" lon="-149.83406">
        <ele>100.114502</ele>
        <time>2012-05-22T21:36:45Z</time>
      </trkpt>
      <trkpt lat="-17.53281" lon="-149.83394">
        <ele>101.556396</ele>
        <time>2012-05-22T21:37:00Z</time>
      </trkpt>
      <trkpt lat="-17.53284" lon="-149.83385">
        <ele>102.998291</ele>
        <time>2012-05-22T21:37:14Z</time>
      </trkpt>
      <trkpt lat="-17.53287" lon="-149.83385">
        <ele>102.998291</ele>
        <time>2012-05-22T21:37:27Z</time>
      </trkpt>
      <trkpt lat="-17.53292" lon="-149.83396">
        <ele>103.479004</ele>
        <time>2012-05-22T21:37:45Z</time>
      </trkpt>
      <trkpt lat="-17.53292" lon="-149.83398">
        <ele>103.479004</ele>
        <time>2012-05-22T21:37:47Z</time>
      </trkpt>
      <trkpt lat="-17.53297" lon="-149.8341">
        <ele>105.882446</ele>
        <time>2012-05-22T21:38:05Z</time>
      </trkpt>
      <trkpt lat="-17.53303" lon="-149.8341">
        <ele>105.401733</ele>
        <time>2012-05-22T21:38:32Z</time>
      </trkpt>
      <trkpt lat="-17.53295" lon="-149.83406">
        <ele>105.401733</ele>
        <time>2012-05-22T21:39:06Z</time>
      </trkpt>
      <trkpt lat="-17.53298" lon="-149.8341">
        <ele>105.401733</ele>
        <time>2012-05-22T21:39:45Z</time>
      </trkpt>
      <trkpt lat="-17.53293" lon="-149.83408">
        <ele>104.921021</ele>
        <time>2012-05-22T21:40:06Z</time>
      </trkpt>
      <trkpt lat="-17.53293" lon="-149.83406">
        <ele>105.401733</ele>
        <time>2012-05-22T21:40:39Z</time>
      </trkpt>
      <trkpt lat="-17.53297" lon="-149.83408">
        <ele>105.882446</ele>
        <time>2012-05-22T21:40:56Z</time>
      </trkpt>
      <trkpt lat="-17.53298" lon="-149.83409">
        <ele>105.882446</ele>
        <time>2012-05-22T21:41:11Z</time>
      </trkpt>
      <trkpt lat="-17.53297" lon="-149.8341">
        <ele>105.882446</ele>
        <time>2012-05-22T21:41:31Z</time>
      </trkpt>
      <trkpt lat="-17.53295" lon="-149.83406">
        <ele>105.882446</ele>
        <time>2012-05-22T21:41:55Z</time>
      </trkpt>
      <trkpt lat="-17.53299" lon="-149.83407">
        <ele>105.882446</ele>
        <time>2012-05-22T21:42:20Z</time>
      </trkpt>
      <trkpt lat="-17.53302" lon="-149.83409">
        <ele>104.921021</ele>
        <time>2012-05-22T21:42:44Z</time>
      </trkpt>
      <trkpt lat="-17.53294" lon="-149.83408">
        <ele>105.882446</ele>
        <time>2012-05-22T21:43:05Z</time>
      </trkpt>
      <trkpt lat="-17.5329" lon="-149.83408">
        <ele>105.882446</ele>
        <time>2012-05-22T21:43:46Z</time>
      </trkpt>
      <trkpt lat="-17.53289" lon="-149.83408">
        <ele>106.363037</ele>
        <time>2012-05-22T21:44:26Z</time>
      </trkpt>
      <trkpt lat="-17.53298" lon="-149.83407">
        <ele>105.882446</ele>
        <time>2012-05-22T21:44:52Z</time>
      </trkpt>
      <trkpt lat="-17.5329" lon="-149.83406">
        <ele>106.363037</ele>
        <time>2012-05-22T21:45:10Z</time>
      </trkpt>
      <trkpt lat="-17.53294" lon="-149.83405">
        <ele>106.843628</ele>
        <time>2012-05-22T21:45:34Z</time>
      </trkpt>
      <trkpt lat="-17.53298" lon="-149.83404">
        <ele>107.324341</ele>
        <time>2012-05-22T21:45:41Z</time>
      </trkpt>
    </trkseg>
  </trk>
</gpx>